<?xml version="1.0" encoding="UTF-8" standalone="no" ?>
<gpx xmlns="http://www.topografix.com/GPX/1/1" xmlns:xsi="http://www.w3.org/2001/XMLSchema-instance" xsi:schemaLocation="http://www.topografix.com/GPX/1/1 http://www.topografix.com/GPX/1/1/gpx.xsd" version="1.1" creator="VisuGPX - https://www.visugpx.com">
  <metadata>
    <name>Lac de Capitello</name>
    <desc><![CDATA[Démarrage du Parking,puis sentier jaune jusqu\\\'au lac de Mélo puis de Capitello]]></desc>
  </metadata>
  <trk>
    <name><![CDATA[Lac de Capitello_1]]></name>
    <trkseg>
      <trkpt lat="42.22947" lon="9.03128">
        <ele>1376</ele>
        <time>2013-06-13T08:36:23Z</time>
      </trkpt>
      <trkpt lat="42.22926" lon="9.03104">
        <ele>1379</ele>
        <time>2013-06-13T08:36:53Z</time>
      </trkpt>
      <trkpt lat="42.22918" lon="9.03097">
        <ele>1377</ele>
        <time>2013-06-13T08:37:02Z</time>
      </trkpt>
      <trkpt lat="42.2291" lon="9.03087">
        <ele>1375</ele>
        <time>2013-06-13T08:37:12Z</time>
      </trkpt>
      <trkpt lat="42.22903" lon="9.03078">
        <ele>1375</ele>
        <time>2013-06-13T08:37:22Z</time>
      </trkpt>
      <trkpt lat="42.22898" lon="9.0307">
        <ele>1375</ele>
        <time>2013-06-13T08:37:32Z</time>
      </trkpt>
      <trkpt lat="42.22892" lon="9.03062">
        <ele>1375</ele>
        <time>2013-06-13T08:37:41Z</time>
      </trkpt>
      <trkpt lat="42.22883" lon="9.03054">
        <ele>1375</ele>
        <time>2013-06-13T08:37:51Z</time>
      </trkpt>
      <trkpt lat="42.22878" lon="9.03045">
        <ele>1375</ele>
        <time>2013-06-13T08:38:00Z</time>
      </trkpt>
      <trkpt lat="42.22879" lon="9.03034">
        <ele>1377</ele>
        <time>2013-06-13T08:38:10Z</time>
      </trkpt>
      <trkpt lat="42.2288" lon="9.03022">
        <ele>1375</ele>
        <time>2013-06-13T08:38:19Z</time>
      </trkpt>
      <trkpt lat="42.22883" lon="9.0301">
        <ele>1361</ele>
        <time>2013-06-13T08:38:30Z</time>
      </trkpt>
      <trkpt lat="42.22879" lon="9.03014">
        <ele>1363</ele>
        <time>2013-06-13T08:38:39Z</time>
      </trkpt>
      <trkpt lat="42.22876" lon="9.03018">
        <ele>1371</ele>
        <time>2013-06-13T08:38:48Z</time>
      </trkpt>
      <trkpt lat="42.22877" lon="9.03018">
        <ele>1380</ele>
        <time>2013-06-13T08:38:59Z</time>
      </trkpt>
      <trkpt lat="42.22879" lon="9.03015">
        <ele>1380</ele>
        <time>2013-06-13T08:39:10Z</time>
      </trkpt>
      <trkpt lat="42.22878" lon="9.03009">
        <ele>1379</ele>
        <time>2013-06-13T08:39:20Z</time>
      </trkpt>
      <trkpt lat="42.22876" lon="9.02999">
        <ele>1378</ele>
        <time>2013-06-13T08:39:30Z</time>
      </trkpt>
      <trkpt lat="42.22875" lon="9.02993">
        <ele>1378</ele>
        <time>2013-06-13T08:39:39Z</time>
      </trkpt>
      <trkpt lat="42.22872" lon="9.02987">
        <ele>1378</ele>
        <time>2013-06-13T08:39:48Z</time>
      </trkpt>
      <trkpt lat="42.22867" lon="9.02981">
        <ele>1380</ele>
        <time>2013-06-13T08:39:57Z</time>
      </trkpt>
      <trkpt lat="42.22866" lon="9.02974">
        <ele>1384</ele>
        <time>2013-06-13T08:40:07Z</time>
      </trkpt>
      <trkpt lat="42.22861" lon="9.02963">
        <ele>1384</ele>
        <time>2013-06-13T08:40:17Z</time>
      </trkpt>
      <trkpt lat="42.22854" lon="9.02957">
        <ele>1385</ele>
        <time>2013-06-13T08:40:27Z</time>
      </trkpt>
      <trkpt lat="42.22851" lon="9.02948">
        <ele>1387</ele>
        <time>2013-06-13T08:40:37Z</time>
      </trkpt>
      <trkpt lat="42.22851" lon="9.02933">
        <ele>1387</ele>
        <time>2013-06-13T08:40:46Z</time>
      </trkpt>
      <trkpt lat="42.22851" lon="9.02923">
        <ele>1394</ele>
        <time>2013-06-13T08:40:55Z</time>
      </trkpt>
      <trkpt lat="42.22844" lon="9.02921">
        <ele>1396</ele>
        <time>2013-06-13T08:41:05Z</time>
      </trkpt>
      <trkpt lat="42.22837" lon="9.02917">
        <ele>1395</ele>
        <time>2013-06-13T08:41:14Z</time>
      </trkpt>
      <trkpt lat="42.22827" lon="9.02903">
        <ele>1389</ele>
        <time>2013-06-13T08:41:24Z</time>
      </trkpt>
      <trkpt lat="42.22819" lon="9.02891">
        <ele>1388</ele>
        <time>2013-06-13T08:41:35Z</time>
      </trkpt>
      <trkpt lat="42.22812" lon="9.02884">
        <ele>1388</ele>
        <time>2013-06-13T08:41:45Z</time>
      </trkpt>
      <trkpt lat="42.22809" lon="9.02876">
        <ele>1388</ele>
        <time>2013-06-13T08:41:55Z</time>
      </trkpt>
      <trkpt lat="42.22805" lon="9.02869">
        <ele>1388</ele>
        <time>2013-06-13T08:42:04Z</time>
      </trkpt>
      <trkpt lat="42.22802" lon="9.0286">
        <ele>1388</ele>
        <time>2013-06-13T08:42:13Z</time>
      </trkpt>
      <trkpt lat="42.22797" lon="9.02851">
        <ele>1390</ele>
        <time>2013-06-13T08:42:23Z</time>
      </trkpt>
      <trkpt lat="42.22793" lon="9.02844">
        <ele>1392</ele>
        <time>2013-06-13T08:42:34Z</time>
      </trkpt>
      <trkpt lat="42.22791" lon="9.02839">
        <ele>1392</ele>
        <time>2013-06-13T08:42:43Z</time>
      </trkpt>
      <trkpt lat="42.22784" lon="9.02834">
        <ele>1397</ele>
        <time>2013-06-13T08:42:53Z</time>
      </trkpt>
      <trkpt lat="42.2278" lon="9.02824">
        <ele>1398</ele>
        <time>2013-06-13T08:43:03Z</time>
      </trkpt>
      <trkpt lat="42.22775" lon="9.02816">
        <ele>1401</ele>
        <time>2013-06-13T08:43:13Z</time>
      </trkpt>
      <trkpt lat="42.2277" lon="9.02807">
        <ele>1401</ele>
        <time>2013-06-13T08:43:23Z</time>
      </trkpt>
      <trkpt lat="42.22768" lon="9.02796">
        <ele>1402</ele>
        <time>2013-06-13T08:43:34Z</time>
      </trkpt>
      <trkpt lat="42.22766" lon="9.02789">
        <ele>1402</ele>
        <time>2013-06-13T08:43:43Z</time>
      </trkpt>
      <trkpt lat="42.2277" lon="9.0278">
        <ele>1402</ele>
        <time>2013-06-13T08:43:52Z</time>
      </trkpt>
      <trkpt lat="42.22765" lon="9.02773">
        <ele>1402</ele>
        <time>2013-06-13T08:44:01Z</time>
      </trkpt>
      <trkpt lat="42.22761" lon="9.02766">
        <ele>1403</ele>
        <time>2013-06-13T08:44:13Z</time>
      </trkpt>
      <trkpt lat="42.22758" lon="9.02765">
        <ele>1404</ele>
        <time>2013-06-13T08:44:23Z</time>
      </trkpt>
      <trkpt lat="42.22752" lon="9.02756">
        <ele>1405</ele>
        <time>2013-06-13T08:44:33Z</time>
      </trkpt>
      <trkpt lat="42.22749" lon="9.02746">
        <ele>1409</ele>
        <time>2013-06-13T08:44:43Z</time>
      </trkpt>
      <trkpt lat="42.22746" lon="9.02739">
        <ele>1409</ele>
        <time>2013-06-13T08:44:52Z</time>
      </trkpt>
      <trkpt lat="42.22742" lon="9.02732">
        <ele>1409</ele>
        <time>2013-06-13T08:45:02Z</time>
      </trkpt>
      <trkpt lat="42.22736" lon="9.0273">
        <ele>1410</ele>
        <time>2013-06-13T08:45:11Z</time>
      </trkpt>
      <trkpt lat="42.22731" lon="9.02725">
        <ele>1410</ele>
        <time>2013-06-13T08:45:21Z</time>
      </trkpt>
      <trkpt lat="42.22723" lon="9.02722">
        <ele>1410</ele>
        <time>2013-06-13T08:45:31Z</time>
      </trkpt>
      <trkpt lat="42.22715" lon="9.02718">
        <ele>1410</ele>
        <time>2013-06-13T08:45:40Z</time>
      </trkpt>
      <trkpt lat="42.22704" lon="9.02715">
        <ele>1410</ele>
        <time>2013-06-13T08:45:50Z</time>
      </trkpt>
      <trkpt lat="42.22698" lon="9.02707">
        <ele>1410</ele>
        <time>2013-06-13T08:46:01Z</time>
      </trkpt>
      <trkpt lat="42.22696" lon="9.02699">
        <ele>1410</ele>
        <time>2013-06-13T08:46:14Z</time>
      </trkpt>
      <trkpt lat="42.22698" lon="9.02692">
        <ele>1412</ele>
        <time>2013-06-13T08:46:23Z</time>
      </trkpt>
      <trkpt lat="42.22697" lon="9.0268">
        <ele>1416</ele>
        <time>2013-06-13T08:46:33Z</time>
      </trkpt>
      <trkpt lat="42.22696" lon="9.02673">
        <ele>1416</ele>
        <time>2013-06-13T08:46:42Z</time>
      </trkpt>
      <trkpt lat="42.22693" lon="9.02671">
        <ele>1416</ele>
        <time>2013-06-13T08:46:51Z</time>
      </trkpt>
      <trkpt lat="42.22687" lon="9.0267">
        <ele>1417</ele>
        <time>2013-06-13T08:47:02Z</time>
      </trkpt>
      <trkpt lat="42.22683" lon="9.02666">
        <ele>1420</ele>
        <time>2013-06-13T08:47:11Z</time>
      </trkpt>
      <trkpt lat="42.22676" lon="9.02662">
        <ele>1420</ele>
        <time>2013-06-13T08:47:21Z</time>
      </trkpt>
      <trkpt lat="42.22673" lon="9.02655">
        <ele>1420</ele>
        <time>2013-06-13T08:47:31Z</time>
      </trkpt>
      <trkpt lat="42.22676" lon="9.02651">
        <ele>1420</ele>
        <time>2013-06-13T08:47:44Z</time>
      </trkpt>
      <trkpt lat="42.22672" lon="9.02649">
        <ele>1420</ele>
        <time>2013-06-13T08:47:53Z</time>
      </trkpt>
      <trkpt lat="42.22668" lon="9.02641">
        <ele>1420</ele>
        <time>2013-06-13T08:48:03Z</time>
      </trkpt>
      <trkpt lat="42.22663" lon="9.02637">
        <ele>1421</ele>
        <time>2013-06-13T08:48:13Z</time>
      </trkpt>
      <trkpt lat="42.22658" lon="9.02631">
        <ele>1423</ele>
        <time>2013-06-13T08:48:24Z</time>
      </trkpt>
      <trkpt lat="42.22652" lon="9.02627">
        <ele>1423</ele>
        <time>2013-06-13T08:48:34Z</time>
      </trkpt>
      <trkpt lat="42.22649" lon="9.02623">
        <ele>1423</ele>
        <time>2013-06-13T08:48:43Z</time>
      </trkpt>
      <trkpt lat="42.22646" lon="9.02617">
        <ele>1423</ele>
        <time>2013-06-13T08:48:54Z</time>
      </trkpt>
      <trkpt lat="42.2264" lon="9.02615">
        <ele>1423</ele>
        <time>2013-06-13T08:49:03Z</time>
      </trkpt>
      <trkpt lat="42.22633" lon="9.02614">
        <ele>1425</ele>
        <time>2013-06-13T08:49:12Z</time>
      </trkpt>
      <trkpt lat="42.22625" lon="9.02613">
        <ele>1428</ele>
        <time>2013-06-13T08:49:21Z</time>
      </trkpt>
      <trkpt lat="42.22617" lon="9.02609">
        <ele>1429</ele>
        <time>2013-06-13T08:49:31Z</time>
      </trkpt>
      <trkpt lat="42.2261" lon="9.02604">
        <ele>1432</ele>
        <time>2013-06-13T08:49:41Z</time>
      </trkpt>
      <trkpt lat="42.22604" lon="9.02599">
        <ele>1434</ele>
        <time>2013-06-13T08:49:51Z</time>
      </trkpt>
      <trkpt lat="42.22603" lon="9.02592">
        <ele>1436</ele>
        <time>2013-06-13T08:50:01Z</time>
      </trkpt>
      <trkpt lat="42.22601" lon="9.02584">
        <ele>1438</ele>
        <time>2013-06-13T08:50:12Z</time>
      </trkpt>
      <trkpt lat="42.22598" lon="9.02579">
        <ele>1439</ele>
        <time>2013-06-13T08:50:21Z</time>
      </trkpt>
      <trkpt lat="42.22595" lon="9.02575">
        <ele>1439</ele>
        <time>2013-06-13T08:50:33Z</time>
      </trkpt>
      <trkpt lat="42.22591" lon="9.02573">
        <ele>1439</ele>
        <time>2013-06-13T08:50:43Z</time>
      </trkpt>
      <trkpt lat="42.22583" lon="9.02573">
        <ele>1439</ele>
        <time>2013-06-13T08:50:53Z</time>
      </trkpt>
      <trkpt lat="42.2258" lon="9.02572">
        <ele>1440</ele>
        <time>2013-06-13T08:51:07Z</time>
      </trkpt>
      <trkpt lat="42.22579" lon="9.02572">
        <ele>1440</ele>
        <time>2013-06-13T08:51:17Z</time>
      </trkpt>
      <trkpt lat="42.22574" lon="9.02565">
        <ele>1441</ele>
        <time>2013-06-13T08:51:26Z</time>
      </trkpt>
      <trkpt lat="42.22567" lon="9.02558">
        <ele>1442</ele>
        <time>2013-06-13T08:51:36Z</time>
      </trkpt>
      <trkpt lat="42.22566" lon="9.02549">
        <ele>1446</ele>
        <time>2013-06-13T08:51:47Z</time>
      </trkpt>
      <trkpt lat="42.22565" lon="9.02538">
        <ele>1446</ele>
        <time>2013-06-13T08:51:56Z</time>
      </trkpt>
      <trkpt lat="42.22558" lon="9.02535">
        <ele>1446</ele>
        <time>2013-06-13T08:52:09Z</time>
      </trkpt>
      <trkpt lat="42.2255" lon="9.02534">
        <ele>1446</ele>
        <time>2013-06-13T08:52:19Z</time>
      </trkpt>
      <trkpt lat="42.22542" lon="9.02531">
        <ele>1446</ele>
        <time>2013-06-13T08:52:29Z</time>
      </trkpt>
      <trkpt lat="42.22535" lon="9.02526">
        <ele>1446</ele>
        <time>2013-06-13T08:52:39Z</time>
      </trkpt>
      <trkpt lat="42.2253" lon="9.02522">
        <ele>1446</ele>
        <time>2013-06-13T08:52:48Z</time>
      </trkpt>
      <trkpt lat="42.22526" lon="9.02517">
        <ele>1447</ele>
        <time>2013-06-13T08:52:59Z</time>
      </trkpt>
      <trkpt lat="42.22519" lon="9.02515">
        <ele>1447</ele>
        <time>2013-06-13T08:53:08Z</time>
      </trkpt>
      <trkpt lat="42.22511" lon="9.0251">
        <ele>1450</ele>
        <time>2013-06-13T08:53:18Z</time>
      </trkpt>
      <trkpt lat="42.22504" lon="9.02507">
        <ele>1452</ele>
        <time>2013-06-13T08:53:29Z</time>
      </trkpt>
      <trkpt lat="42.22498" lon="9.02503">
        <ele>1452</ele>
        <time>2013-06-13T08:53:39Z</time>
      </trkpt>
      <trkpt lat="42.22495" lon="9.025">
        <ele>1454</ele>
        <time>2013-06-13T08:53:48Z</time>
      </trkpt>
      <trkpt lat="42.22493" lon="9.02493">
        <ele>1456</ele>
        <time>2013-06-13T08:53:57Z</time>
      </trkpt>
      <trkpt lat="42.2249" lon="9.0249">
        <ele>1457</ele>
        <time>2013-06-13T08:54:07Z</time>
      </trkpt>
      <trkpt lat="42.22486" lon="9.02486">
        <ele>1457</ele>
        <time>2013-06-13T08:54:16Z</time>
      </trkpt>
      <trkpt lat="42.2248" lon="9.02483">
        <ele>1457</ele>
        <time>2013-06-13T08:54:26Z</time>
      </trkpt>
      <trkpt lat="42.22472" lon="9.02481">
        <ele>1457</ele>
        <time>2013-06-13T08:54:35Z</time>
      </trkpt>
      <trkpt lat="42.22467" lon="9.02478">
        <ele>1457</ele>
        <time>2013-06-13T08:54:45Z</time>
      </trkpt>
      <trkpt lat="42.22463" lon="9.02477">
        <ele>1457</ele>
        <time>2013-06-13T08:54:55Z</time>
      </trkpt>
      <trkpt lat="42.22459" lon="9.02472">
        <ele>1459</ele>
        <time>2013-06-13T08:55:05Z</time>
      </trkpt>
      <trkpt lat="42.22455" lon="9.02471">
        <ele>1461</ele>
        <time>2013-06-13T08:55:15Z</time>
      </trkpt>
      <trkpt lat="42.22454" lon="9.02466">
        <ele>1462</ele>
        <time>2013-06-13T08:55:25Z</time>
      </trkpt>
      <trkpt lat="42.22452" lon="9.02462">
        <ele>1463</ele>
        <time>2013-06-13T08:55:35Z</time>
      </trkpt>
      <trkpt lat="42.22447" lon="9.0246">
        <ele>1465</ele>
        <time>2013-06-13T08:55:44Z</time>
      </trkpt>
      <trkpt lat="42.2244" lon="9.02458">
        <ele>1468</ele>
        <time>2013-06-13T08:55:55Z</time>
      </trkpt>
      <trkpt lat="42.22436" lon="9.02455">
        <ele>1470</ele>
        <time>2013-06-13T08:56:04Z</time>
      </trkpt>
      <trkpt lat="42.22435" lon="9.02451">
        <ele>1471</ele>
        <time>2013-06-13T08:56:14Z</time>
      </trkpt>
      <trkpt lat="42.22428" lon="9.0245">
        <ele>1471</ele>
        <time>2013-06-13T08:56:25Z</time>
      </trkpt>
      <trkpt lat="42.22427" lon="9.02446">
        <ele>1471</ele>
        <time>2013-06-13T08:56:34Z</time>
      </trkpt>
      <trkpt lat="42.22425" lon="9.02443">
        <ele>1473</ele>
        <time>2013-06-13T08:56:43Z</time>
      </trkpt>
      <trkpt lat="42.2242" lon="9.02441">
        <ele>1479</ele>
        <time>2013-06-13T08:56:52Z</time>
      </trkpt>
      <trkpt lat="42.22419" lon="9.02434">
        <ele>1480</ele>
        <time>2013-06-13T08:57:03Z</time>
      </trkpt>
      <trkpt lat="42.22417" lon="9.02429">
        <ele>1480</ele>
        <time>2013-06-13T08:57:12Z</time>
      </trkpt>
      <trkpt lat="42.22414" lon="9.02425">
        <ele>1478</ele>
        <time>2013-06-13T08:57:21Z</time>
      </trkpt>
      <trkpt lat="42.22409" lon="9.02423">
        <ele>1478</ele>
        <time>2013-06-13T08:57:30Z</time>
      </trkpt>
      <trkpt lat="42.22404" lon="9.02427">
        <ele>1478</ele>
        <time>2013-06-13T08:57:40Z</time>
      </trkpt>
      <trkpt lat="42.22399" lon="9.02429">
        <ele>1478</ele>
        <time>2013-06-13T08:57:51Z</time>
      </trkpt>
      <trkpt lat="42.22394" lon="9.02427">
        <ele>1478</ele>
        <time>2013-06-13T08:58:01Z</time>
      </trkpt>
      <trkpt lat="42.2239" lon="9.0242">
        <ele>1483</ele>
        <time>2013-06-13T08:58:12Z</time>
      </trkpt>
      <trkpt lat="42.22392" lon="9.02417">
        <ele>1484</ele>
        <time>2013-06-13T08:58:24Z</time>
      </trkpt>
      <trkpt lat="42.22385" lon="9.02413">
        <ele>1495</ele>
        <time>2013-06-13T08:58:35Z</time>
      </trkpt>
      <trkpt lat="42.22392" lon="9.02407">
        <ele>1498</ele>
        <time>2013-06-13T08:58:45Z</time>
      </trkpt>
      <trkpt lat="42.22392" lon="9.024">
        <ele>1491</ele>
        <time>2013-06-13T08:58:55Z</time>
      </trkpt>
      <trkpt lat="42.22393" lon="9.02396">
        <ele>1490</ele>
        <time>2013-06-13T08:59:06Z</time>
      </trkpt>
      <trkpt lat="42.22393" lon="9.02393">
        <ele>1490</ele>
        <time>2013-06-13T08:59:15Z</time>
      </trkpt>
      <trkpt lat="42.22393" lon="9.02393">
        <ele>1491</ele>
        <time>2013-06-13T08:59:24Z</time>
      </trkpt>
      <trkpt lat="42.22388" lon="9.02391">
        <ele>1491</ele>
        <time>2013-06-13T08:59:36Z</time>
      </trkpt>
      <trkpt lat="42.22387" lon="9.0239">
        <ele>1491</ele>
        <time>2013-06-13T08:59:54Z</time>
      </trkpt>
      <trkpt lat="42.2238" lon="9.02387">
        <ele>1491</ele>
        <time>2013-06-13T09:00:04Z</time>
      </trkpt>
      <trkpt lat="42.22373" lon="9.02386">
        <ele>1491</ele>
        <time>2013-06-13T09:00:14Z</time>
      </trkpt>
      <trkpt lat="42.22368" lon="9.02381">
        <ele>1491</ele>
        <time>2013-06-13T09:00:23Z</time>
      </trkpt>
      <trkpt lat="42.22362" lon="9.0238">
        <ele>1491</ele>
        <time>2013-06-13T09:00:33Z</time>
      </trkpt>
      <trkpt lat="42.22356" lon="9.02384">
        <ele>1491</ele>
        <time>2013-06-13T09:00:43Z</time>
      </trkpt>
      <trkpt lat="42.2235" lon="9.02391">
        <ele>1491</ele>
        <time>2013-06-13T09:00:53Z</time>
      </trkpt>
      <trkpt lat="42.22343" lon="9.02389">
        <ele>1491</ele>
        <time>2013-06-13T09:01:04Z</time>
      </trkpt>
      <trkpt lat="42.22339" lon="9.02383">
        <ele>1492</ele>
        <time>2013-06-13T09:01:15Z</time>
      </trkpt>
      <trkpt lat="42.22336" lon="9.02378">
        <ele>1492</ele>
        <time>2013-06-13T09:01:26Z</time>
      </trkpt>
      <trkpt lat="42.22333" lon="9.02376">
        <ele>1492</ele>
        <time>2013-06-13T09:01:35Z</time>
      </trkpt>
      <trkpt lat="42.22329" lon="9.02374">
        <ele>1492</ele>
        <time>2013-06-13T09:01:47Z</time>
      </trkpt>
      <trkpt lat="42.22326" lon="9.02372">
        <ele>1495</ele>
        <time>2013-06-13T09:01:57Z</time>
      </trkpt>
      <trkpt lat="42.22322" lon="9.02374">
        <ele>1495</ele>
        <time>2013-06-13T09:02:08Z</time>
      </trkpt>
      <trkpt lat="42.22316" lon="9.02375">
        <ele>1495</ele>
        <time>2013-06-13T09:02:18Z</time>
      </trkpt>
      <trkpt lat="42.22309" lon="9.02374">
        <ele>1495</ele>
        <time>2013-06-13T09:02:28Z</time>
      </trkpt>
      <trkpt lat="42.22306" lon="9.02371">
        <ele>1495</ele>
        <time>2013-06-13T09:02:38Z</time>
      </trkpt>
      <trkpt lat="42.223" lon="9.02374">
        <ele>1496</ele>
        <time>2013-06-13T09:02:47Z</time>
      </trkpt>
      <trkpt lat="42.22294" lon="9.02375">
        <ele>1498</ele>
        <time>2013-06-13T09:02:57Z</time>
      </trkpt>
      <trkpt lat="42.22288" lon="9.0238">
        <ele>1501</ele>
        <time>2013-06-13T09:03:06Z</time>
      </trkpt>
      <trkpt lat="42.22277" lon="9.02381">
        <ele>1501</ele>
        <time>2013-06-13T09:03:15Z</time>
      </trkpt>
      <trkpt lat="42.22269" lon="9.0238">
        <ele>1501</ele>
        <time>2013-06-13T09:03:24Z</time>
      </trkpt>
      <trkpt lat="42.22261" lon="9.02378">
        <ele>1501</ele>
        <time>2013-06-13T09:03:34Z</time>
      </trkpt>
      <trkpt lat="42.22252" lon="9.02376">
        <ele>1502</ele>
        <time>2013-06-13T09:03:44Z</time>
      </trkpt>
      <trkpt lat="42.22241" lon="9.02378">
        <ele>1502</ele>
        <time>2013-06-13T09:03:54Z</time>
      </trkpt>
      <trkpt lat="42.22229" lon="9.0238">
        <ele>1507</ele>
        <time>2013-06-13T09:04:03Z</time>
      </trkpt>
      <trkpt lat="42.22221" lon="9.02378">
        <ele>1510</ele>
        <time>2013-06-13T09:04:12Z</time>
      </trkpt>
      <trkpt lat="42.22212" lon="9.02374">
        <ele>1511</ele>
        <time>2013-06-13T09:04:22Z</time>
      </trkpt>
      <trkpt lat="42.22205" lon="9.02368">
        <ele>1511</ele>
        <time>2013-06-13T09:04:33Z</time>
      </trkpt>
      <trkpt lat="42.22196" lon="9.02365">
        <ele>1515</ele>
        <time>2013-06-13T09:04:43Z</time>
      </trkpt>
      <trkpt lat="42.22189" lon="9.02358">
        <ele>1515</ele>
        <time>2013-06-13T09:04:53Z</time>
      </trkpt>
      <trkpt lat="42.22182" lon="9.02353">
        <ele>1515</ele>
        <time>2013-06-13T09:05:03Z</time>
      </trkpt>
      <trkpt lat="42.2218" lon="9.02354">
        <ele>1515</ele>
        <time>2013-06-13T09:05:12Z</time>
      </trkpt>
      <trkpt lat="42.22174" lon="9.02358">
        <ele>1516</ele>
        <time>2013-06-13T09:05:23Z</time>
      </trkpt>
      <trkpt lat="42.22167" lon="9.02366">
        <ele>1516</ele>
        <time>2013-06-13T09:05:33Z</time>
      </trkpt>
      <trkpt lat="42.22162" lon="9.02371">
        <ele>1516</ele>
        <time>2013-06-13T09:05:43Z</time>
      </trkpt>
      <trkpt lat="42.22155" lon="9.02376">
        <ele>1517</ele>
        <time>2013-06-13T09:05:53Z</time>
      </trkpt>
      <trkpt lat="42.22152" lon="9.02381">
        <ele>1517</ele>
        <time>2013-06-13T09:06:02Z</time>
      </trkpt>
      <trkpt lat="42.2215" lon="9.02392">
        <ele>1518</ele>
        <time>2013-06-13T09:06:12Z</time>
      </trkpt>
      <trkpt lat="42.22142" lon="9.02399">
        <ele>1520</ele>
        <time>2013-06-13T09:06:22Z</time>
      </trkpt>
      <trkpt lat="42.22139" lon="9.02396">
        <ele>1520</ele>
        <time>2013-06-13T09:06:31Z</time>
      </trkpt>
      <trkpt lat="42.2213" lon="9.02392">
        <ele>1524</ele>
        <time>2013-06-13T09:06:41Z</time>
      </trkpt>
      <trkpt lat="42.22121" lon="9.02387">
        <ele>1527</ele>
        <time>2013-06-13T09:06:51Z</time>
      </trkpt>
      <trkpt lat="42.22113" lon="9.02386">
        <ele>1527</ele>
        <time>2013-06-13T09:07:00Z</time>
      </trkpt>
      <trkpt lat="42.22105" lon="9.0239">
        <ele>1526</ele>
        <time>2013-06-13T09:07:10Z</time>
      </trkpt>
      <trkpt lat="42.22108" lon="9.02391">
        <ele>1525</ele>
        <time>2013-06-13T09:07:24Z</time>
      </trkpt>
      <trkpt lat="42.22102" lon="9.02391">
        <ele>1525</ele>
        <time>2013-06-13T09:07:33Z</time>
      </trkpt>
      <trkpt lat="42.22092" lon="9.02388">
        <ele>1525</ele>
        <time>2013-06-13T09:07:42Z</time>
      </trkpt>
      <trkpt lat="42.22083" lon="9.02389">
        <ele>1525</ele>
        <time>2013-06-13T09:07:52Z</time>
      </trkpt>
      <trkpt lat="42.22076" lon="9.02391">
        <ele>1525</ele>
        <time>2013-06-13T09:08:01Z</time>
      </trkpt>
      <trkpt lat="42.2207" lon="9.02398">
        <ele>1525</ele>
        <time>2013-06-13T09:08:11Z</time>
      </trkpt>
      <trkpt lat="42.22065" lon="9.02402">
        <ele>1525</ele>
        <time>2013-06-13T09:08:20Z</time>
      </trkpt>
      <trkpt lat="42.22057" lon="9.02402">
        <ele>1525</ele>
        <time>2013-06-13T09:08:29Z</time>
      </trkpt>
      <trkpt lat="42.22051" lon="9.02405">
        <ele>1524</ele>
        <time>2013-06-13T09:08:38Z</time>
      </trkpt>
      <trkpt lat="42.22046" lon="9.02408">
        <ele>1524</ele>
        <time>2013-06-13T09:08:49Z</time>
      </trkpt>
      <trkpt lat="42.22047" lon="9.02407">
        <ele>1524</ele>
        <time>2013-06-13T09:09:17Z</time>
      </trkpt>
      <trkpt lat="42.22044" lon="9.02398">
        <ele>1524</ele>
        <time>2013-06-13T09:09:26Z</time>
      </trkpt>
      <trkpt lat="42.22043" lon="9.02392">
        <ele>1524</ele>
        <time>2013-06-13T09:09:36Z</time>
      </trkpt>
      <trkpt lat="42.22043" lon="9.02386">
        <ele>1524</ele>
        <time>2013-06-13T09:09:45Z</time>
      </trkpt>
      <trkpt lat="42.22035" lon="9.02387">
        <ele>1524</ele>
        <time>2013-06-13T09:09:54Z</time>
      </trkpt>
      <trkpt lat="42.22028" lon="9.02388">
        <ele>1524</ele>
        <time>2013-06-13T09:10:03Z</time>
      </trkpt>
      <trkpt lat="42.22026" lon="9.02389">
        <ele>1524</ele>
        <time>2013-06-13T09:10:16Z</time>
      </trkpt>
      <trkpt lat="42.22026" lon="9.02392">
        <ele>1524</ele>
        <time>2013-06-13T09:10:26Z</time>
      </trkpt>
      <trkpt lat="42.22031" lon="9.02388">
        <ele>1524</ele>
        <time>2013-06-13T09:10:38Z</time>
      </trkpt>
      <trkpt lat="42.22033" lon="9.02381">
        <ele>1524</ele>
        <time>2013-06-13T09:10:49Z</time>
      </trkpt>
      <trkpt lat="42.2203" lon="9.02377">
        <ele>1526</ele>
        <time>2013-06-13T09:10:58Z</time>
      </trkpt>
      <trkpt lat="42.22025" lon="9.02378">
        <ele>1528</ele>
        <time>2013-06-13T09:11:08Z</time>
      </trkpt>
      <trkpt lat="42.22016" lon="9.02376">
        <ele>1528</ele>
        <time>2013-06-13T09:11:19Z</time>
      </trkpt>
      <trkpt lat="42.22007" lon="9.02377">
        <ele>1528</ele>
        <time>2013-06-13T09:11:28Z</time>
      </trkpt>
      <trkpt lat="42.22004" lon="9.02377">
        <ele>1528</ele>
        <time>2013-06-13T09:11:44Z</time>
      </trkpt>
      <trkpt lat="42.22005" lon="9.02376">
        <ele>1528</ele>
        <time>2013-06-13T09:11:56Z</time>
      </trkpt>
      <trkpt lat="42.22006" lon="9.02375">
        <ele>1528</ele>
        <time>2013-06-13T09:12:05Z</time>
      </trkpt>
      <trkpt lat="42.22006" lon="9.02378">
        <ele>1528</ele>
        <time>2013-06-13T09:12:18Z</time>
      </trkpt>
      <trkpt lat="42.22005" lon="9.02376">
        <ele>1528</ele>
        <time>2013-06-13T09:12:29Z</time>
      </trkpt>
      <trkpt lat="42.2201" lon="9.02374">
        <ele>1527</ele>
        <time>2013-06-13T09:12:40Z</time>
      </trkpt>
      <trkpt lat="42.22011" lon="9.02373">
        <ele>1527</ele>
        <time>2013-06-13T09:12:49Z</time>
      </trkpt>
      <trkpt lat="42.22012" lon="9.02372">
        <ele>1527</ele>
        <time>2013-06-13T09:13:11Z</time>
      </trkpt>
      <trkpt lat="42.22015" lon="9.02374">
        <ele>1527</ele>
        <time>2013-06-13T09:13:23Z</time>
      </trkpt>
      <trkpt lat="42.2202" lon="9.02371">
        <ele>1527</ele>
        <time>2013-06-13T09:13:36Z</time>
      </trkpt>
      <trkpt lat="42.22023" lon="9.02366">
        <ele>1527</ele>
        <time>2013-06-13T09:13:46Z</time>
      </trkpt>
      <trkpt lat="42.22019" lon="9.02362">
        <ele>1528</ele>
        <time>2013-06-13T09:13:57Z</time>
      </trkpt>
      <trkpt lat="42.22012" lon="9.02361">
        <ele>1529</ele>
        <time>2013-06-13T09:14:08Z</time>
      </trkpt>
      <trkpt lat="42.22007" lon="9.02359">
        <ele>1530</ele>
        <time>2013-06-13T09:14:17Z</time>
      </trkpt>
      <trkpt lat="42.22004" lon="9.02356">
        <ele>1532</ele>
        <time>2013-06-13T09:14:29Z</time>
      </trkpt>
      <trkpt lat="42.22002" lon="9.02354">
        <ele>1533</ele>
        <time>2013-06-13T09:14:38Z</time>
      </trkpt>
      <trkpt lat="42.21995" lon="9.02353">
        <ele>1533</ele>
        <time>2013-06-13T09:14:47Z</time>
      </trkpt>
      <trkpt lat="42.21991" lon="9.02347">
        <ele>1533</ele>
        <time>2013-06-13T09:14:58Z</time>
      </trkpt>
      <trkpt lat="42.21985" lon="9.02345">
        <ele>1535</ele>
        <time>2013-06-13T09:15:07Z</time>
      </trkpt>
      <trkpt lat="42.21976" lon="9.02346">
        <ele>1535</ele>
        <time>2013-06-13T09:15:17Z</time>
      </trkpt>
      <trkpt lat="42.21967" lon="9.02344">
        <ele>1535</ele>
        <time>2013-06-13T09:15:26Z</time>
      </trkpt>
      <trkpt lat="42.21958" lon="9.02343">
        <ele>1535</ele>
        <time>2013-06-13T09:15:38Z</time>
      </trkpt>
      <trkpt lat="42.21952" lon="9.02335">
        <ele>1537</ele>
        <time>2013-06-13T09:15:47Z</time>
      </trkpt>
      <trkpt lat="42.21945" lon="9.02337">
        <ele>1537</ele>
        <time>2013-06-13T09:15:56Z</time>
      </trkpt>
      <trkpt lat="42.21939" lon="9.02342">
        <ele>1538</ele>
        <time>2013-06-13T09:16:05Z</time>
      </trkpt>
      <trkpt lat="42.2193" lon="9.02346">
        <ele>1539</ele>
        <time>2013-06-13T09:16:14Z</time>
      </trkpt>
      <trkpt lat="42.21922" lon="9.02353">
        <ele>1539</ele>
        <time>2013-06-13T09:16:23Z</time>
      </trkpt>
      <trkpt lat="42.21913" lon="9.02361">
        <ele>1541</ele>
        <time>2013-06-13T09:16:33Z</time>
      </trkpt>
      <trkpt lat="42.21904" lon="9.02364">
        <ele>1541</ele>
        <time>2013-06-13T09:16:43Z</time>
      </trkpt>
      <trkpt lat="42.21894" lon="9.02364">
        <ele>1541</ele>
        <time>2013-06-13T09:16:53Z</time>
      </trkpt>
      <trkpt lat="42.21886" lon="9.02364">
        <ele>1541</ele>
        <time>2013-06-13T09:17:02Z</time>
      </trkpt>
      <trkpt lat="42.21878" lon="9.02365">
        <ele>1541</ele>
        <time>2013-06-13T09:17:11Z</time>
      </trkpt>
      <trkpt lat="42.21871" lon="9.02363">
        <ele>1541</ele>
        <time>2013-06-13T09:17:21Z</time>
      </trkpt>
      <trkpt lat="42.21862" lon="9.02363">
        <ele>1542</ele>
        <time>2013-06-13T09:17:32Z</time>
      </trkpt>
      <trkpt lat="42.21854" lon="9.02366">
        <ele>1544</ele>
        <time>2013-06-13T09:17:41Z</time>
      </trkpt>
      <trkpt lat="42.21845" lon="9.02366">
        <ele>1546</ele>
        <time>2013-06-13T09:17:50Z</time>
      </trkpt>
      <trkpt lat="42.21838" lon="9.02362">
        <ele>1546</ele>
        <time>2013-06-13T09:17:59Z</time>
      </trkpt>
      <trkpt lat="42.21832" lon="9.02365">
        <ele>1546</ele>
        <time>2013-06-13T09:18:08Z</time>
      </trkpt>
      <trkpt lat="42.21828" lon="9.02369">
        <ele>1546</ele>
        <time>2013-06-13T09:18:18Z</time>
      </trkpt>
      <trkpt lat="42.2182" lon="9.02378">
        <ele>1547</ele>
        <time>2013-06-13T09:18:28Z</time>
      </trkpt>
      <trkpt lat="42.21815" lon="9.02384">
        <ele>1547</ele>
        <time>2013-06-13T09:18:37Z</time>
      </trkpt>
      <trkpt lat="42.21808" lon="9.02391">
        <ele>1547</ele>
        <time>2013-06-13T09:18:46Z</time>
      </trkpt>
      <trkpt lat="42.21802" lon="9.02394">
        <ele>1547</ele>
        <time>2013-06-13T09:18:56Z</time>
      </trkpt>
      <trkpt lat="42.21798" lon="9.02396">
        <ele>1547</ele>
        <time>2013-06-13T09:19:06Z</time>
      </trkpt>
      <trkpt lat="42.21793" lon="9.02396">
        <ele>1548</ele>
        <time>2013-06-13T09:19:15Z</time>
      </trkpt>
      <trkpt lat="42.21788" lon="9.02401">
        <ele>1551</ele>
        <time>2013-06-13T09:19:25Z</time>
      </trkpt>
      <trkpt lat="42.21784" lon="9.02396">
        <ele>1552</ele>
        <time>2013-06-13T09:19:35Z</time>
      </trkpt>
      <trkpt lat="42.21777" lon="9.02397">
        <ele>1553</ele>
        <time>2013-06-13T09:19:45Z</time>
      </trkpt>
      <trkpt lat="42.2177" lon="9.02398">
        <ele>1555</ele>
        <time>2013-06-13T09:19:55Z</time>
      </trkpt>
      <trkpt lat="42.21765" lon="9.02399">
        <ele>1557</ele>
        <time>2013-06-13T09:20:04Z</time>
      </trkpt>
      <trkpt lat="42.21759" lon="9.02398">
        <ele>1558</ele>
        <time>2013-06-13T09:20:14Z</time>
      </trkpt>
      <trkpt lat="42.21755" lon="9.02394">
        <ele>1560</ele>
        <time>2013-06-13T09:20:24Z</time>
      </trkpt>
      <trkpt lat="42.21751" lon="9.0239">
        <ele>1561</ele>
        <time>2013-06-13T09:20:33Z</time>
      </trkpt>
      <trkpt lat="42.21747" lon="9.02388">
        <ele>1561</ele>
        <time>2013-06-13T09:20:42Z</time>
      </trkpt>
      <trkpt lat="42.21744" lon="9.02388">
        <ele>1565</ele>
        <time>2013-06-13T09:21:01Z</time>
      </trkpt>
      <trkpt lat="42.21741" lon="9.0239">
        <ele>1567</ele>
        <time>2013-06-13T09:21:27Z</time>
      </trkpt>
      <trkpt lat="42.21735" lon="9.02392">
        <ele>1567</ele>
        <time>2013-06-13T09:21:36Z</time>
      </trkpt>
      <trkpt lat="42.21727" lon="9.02398">
        <ele>1571</ele>
        <time>2013-06-13T09:21:46Z</time>
      </trkpt>
      <trkpt lat="42.21721" lon="9.02398">
        <ele>1572</ele>
        <time>2013-06-13T09:21:59Z</time>
      </trkpt>
      <trkpt lat="42.21716" lon="9.02398">
        <ele>1572</ele>
        <time>2013-06-13T09:22:10Z</time>
      </trkpt>
      <trkpt lat="42.21707" lon="9.02405">
        <ele>1572</ele>
        <time>2013-06-13T09:22:20Z</time>
      </trkpt>
      <trkpt lat="42.21703" lon="9.02408">
        <ele>1573</ele>
        <time>2013-06-13T09:22:32Z</time>
      </trkpt>
      <trkpt lat="42.21698" lon="9.02407">
        <ele>1573</ele>
        <time>2013-06-13T09:22:44Z</time>
      </trkpt>
      <trkpt lat="42.21699" lon="9.02409">
        <ele>1573</ele>
        <time>2013-06-13T09:22:54Z</time>
      </trkpt>
      <trkpt lat="42.21694" lon="9.02412">
        <ele>1574</ele>
        <time>2013-06-13T09:23:04Z</time>
      </trkpt>
      <trkpt lat="42.21688" lon="9.02416">
        <ele>1577</ele>
        <time>2013-06-13T09:23:15Z</time>
      </trkpt>
      <trkpt lat="42.21685" lon="9.02421">
        <ele>1579</ele>
        <time>2013-06-13T09:23:24Z</time>
      </trkpt>
      <trkpt lat="42.21682" lon="9.02425">
        <ele>1580</ele>
        <time>2013-06-13T09:23:33Z</time>
      </trkpt>
      <trkpt lat="42.21681" lon="9.0243">
        <ele>1582</ele>
        <time>2013-06-13T09:23:43Z</time>
      </trkpt>
      <trkpt lat="42.21679" lon="9.02438">
        <ele>1584</ele>
        <time>2013-06-13T09:23:53Z</time>
      </trkpt>
      <trkpt lat="42.21674" lon="9.02436">
        <ele>1585</ele>
        <time>2013-06-13T09:24:05Z</time>
      </trkpt>
      <trkpt lat="42.2167" lon="9.02434">
        <ele>1585</ele>
        <time>2013-06-13T09:24:16Z</time>
      </trkpt>
      <trkpt lat="42.21668" lon="9.02428">
        <ele>1585</ele>
        <time>2013-06-13T09:24:27Z</time>
      </trkpt>
      <trkpt lat="42.21666" lon="9.02433">
        <ele>1587</ele>
        <time>2013-06-13T09:24:36Z</time>
      </trkpt>
      <trkpt lat="42.2166" lon="9.02439">
        <ele>1589</ele>
        <time>2013-06-13T09:24:45Z</time>
      </trkpt>
      <trkpt lat="42.21656" lon="9.02442">
        <ele>1590</ele>
        <time>2013-06-13T09:24:54Z</time>
      </trkpt>
      <trkpt lat="42.21656" lon="9.0244">
        <ele>1591</ele>
        <time>2013-06-13T09:25:08Z</time>
      </trkpt>
      <trkpt lat="42.21656" lon="9.0244">
        <ele>1594</ele>
        <time>2013-06-13T09:25:17Z</time>
      </trkpt>
      <trkpt lat="42.21651" lon="9.0244">
        <ele>1595</ele>
        <time>2013-06-13T09:25:26Z</time>
      </trkpt>
      <trkpt lat="42.21648" lon="9.02444">
        <ele>1595</ele>
        <time>2013-06-13T09:25:35Z</time>
      </trkpt>
      <trkpt lat="42.21644" lon="9.02446">
        <ele>1595</ele>
        <time>2013-06-13T09:25:44Z</time>
      </trkpt>
      <trkpt lat="42.2164" lon="9.02446">
        <ele>1595</ele>
        <time>2013-06-13T09:25:54Z</time>
      </trkpt>
      <trkpt lat="42.2164" lon="9.02446">
        <ele>1596</ele>
        <time>2013-06-13T09:26:10Z</time>
      </trkpt>
      <trkpt lat="42.21633" lon="9.0245">
        <ele>1597</ele>
        <time>2013-06-13T09:26:19Z</time>
      </trkpt>
      <trkpt lat="42.2163" lon="9.02452">
        <ele>1598</ele>
        <time>2013-06-13T09:26:28Z</time>
      </trkpt>
      <trkpt lat="42.21626" lon="9.02454">
        <ele>1602</ele>
        <time>2013-06-13T09:26:39Z</time>
      </trkpt>
      <trkpt lat="42.21623" lon="9.02459">
        <ele>1603</ele>
        <time>2013-06-13T09:26:49Z</time>
      </trkpt>
      <trkpt lat="42.21618" lon="9.02464">
        <ele>1607</ele>
        <time>2013-06-13T09:26:59Z</time>
      </trkpt>
      <trkpt lat="42.21614" lon="9.02463">
        <ele>1607</ele>
        <time>2013-06-13T09:27:10Z</time>
      </trkpt>
      <trkpt lat="42.21614" lon="9.02465">
        <ele>1609</ele>
        <time>2013-06-13T09:27:19Z</time>
      </trkpt>
      <trkpt lat="42.21611" lon="9.0247">
        <ele>1611</ele>
        <time>2013-06-13T09:27:28Z</time>
      </trkpt>
      <trkpt lat="42.21608" lon="9.02468">
        <ele>1612</ele>
        <time>2013-06-13T09:27:38Z</time>
      </trkpt>
      <trkpt lat="42.21606" lon="9.02464">
        <ele>1612</ele>
        <time>2013-06-13T09:27:47Z</time>
      </trkpt>
      <trkpt lat="42.216" lon="9.02463">
        <ele>1612</ele>
        <time>2013-06-13T09:27:57Z</time>
      </trkpt>
      <trkpt lat="42.21597" lon="9.02457">
        <ele>1613</ele>
        <time>2013-06-13T09:28:08Z</time>
      </trkpt>
      <trkpt lat="42.21594" lon="9.02453">
        <ele>1613</ele>
        <time>2013-06-13T09:28:17Z</time>
      </trkpt>
      <trkpt lat="42.21591" lon="9.0245">
        <ele>1614</ele>
        <time>2013-06-13T09:28:26Z</time>
      </trkpt>
      <trkpt lat="42.21592" lon="9.02443">
        <ele>1618</ele>
        <time>2013-06-13T09:28:36Z</time>
      </trkpt>
      <trkpt lat="42.21594" lon="9.02437">
        <ele>1622</ele>
        <time>2013-06-13T09:28:45Z</time>
      </trkpt>
      <trkpt lat="42.21588" lon="9.02433">
        <ele>1622</ele>
        <time>2013-06-13T09:28:56Z</time>
      </trkpt>
      <trkpt lat="42.21588" lon="9.02428">
        <ele>1624</ele>
        <time>2013-06-13T09:29:05Z</time>
      </trkpt>
      <trkpt lat="42.2159" lon="9.02427">
        <ele>1629</ele>
        <time>2013-06-13T09:29:16Z</time>
      </trkpt>
      <trkpt lat="42.21587" lon="9.02423">
        <ele>1630</ele>
        <time>2013-06-13T09:29:27Z</time>
      </trkpt>
      <trkpt lat="42.21595" lon="9.02418">
        <ele>1637</ele>
        <time>2013-06-13T09:29:37Z</time>
      </trkpt>
      <trkpt lat="42.21592" lon="9.02417">
        <ele>1644</ele>
        <time>2013-06-13T09:29:47Z</time>
      </trkpt>
      <trkpt lat="42.21589" lon="9.02415">
        <ele>1647</ele>
        <time>2013-06-13T09:29:56Z</time>
      </trkpt>
      <trkpt lat="42.21576" lon="9.02409">
        <ele>1643</ele>
        <time>2013-06-13T09:30:06Z</time>
      </trkpt>
      <trkpt lat="42.21563" lon="9.02405">
        <ele>1636</ele>
        <time>2013-06-13T09:30:16Z</time>
      </trkpt>
      <trkpt lat="42.2156" lon="9.02401">
        <ele>1631</ele>
        <time>2013-06-13T09:30:25Z</time>
      </trkpt>
      <trkpt lat="42.2156" lon="9.02399">
        <ele>1631</ele>
        <time>2013-06-13T09:30:35Z</time>
      </trkpt>
      <trkpt lat="42.21561" lon="9.02398">
        <ele>1632</ele>
        <time>2013-06-13T09:30:51Z</time>
      </trkpt>
      <trkpt lat="42.21565" lon="9.02398">
        <ele>1644</ele>
        <time>2013-06-13T09:31:06Z</time>
      </trkpt>
      <trkpt lat="42.21563" lon="9.024">
        <ele>1644</ele>
        <time>2013-06-13T09:31:16Z</time>
      </trkpt>
      <trkpt lat="42.21563" lon="9.02403">
        <ele>1644</ele>
        <time>2013-06-13T09:31:28Z</time>
      </trkpt>
      <trkpt lat="42.21564" lon="9.02406">
        <ele>1645</ele>
        <time>2013-06-13T09:31:37Z</time>
      </trkpt>
      <trkpt lat="42.21566" lon="9.02406">
        <ele>1646</ele>
        <time>2013-06-13T09:31:47Z</time>
      </trkpt>
      <trkpt lat="42.21566" lon="9.02407">
        <ele>1652</ele>
        <time>2013-06-13T09:31:58Z</time>
      </trkpt>
      <trkpt lat="42.21556" lon="9.02404">
        <ele>1652</ele>
        <time>2013-06-13T09:32:07Z</time>
      </trkpt>
      <trkpt lat="42.21545" lon="9.02398">
        <ele>1643</ele>
        <time>2013-06-13T09:32:16Z</time>
      </trkpt>
      <trkpt lat="42.21549" lon="9.02394">
        <ele>1635</ele>
        <time>2013-06-13T09:32:25Z</time>
      </trkpt>
      <trkpt lat="42.21553" lon="9.02395">
        <ele>1635</ele>
        <time>2013-06-13T09:32:39Z</time>
      </trkpt>
      <trkpt lat="42.21537" lon="9.02391">
        <ele>1634</ele>
        <time>2013-06-13T09:32:48Z</time>
      </trkpt>
      <trkpt lat="42.2151" lon="9.02385">
        <ele>1610</ele>
        <time>2013-06-13T09:32:57Z</time>
      </trkpt>
      <trkpt lat="42.2151" lon="9.02387">
        <ele>1595</ele>
        <time>2013-06-13T09:33:06Z</time>
      </trkpt>
      <trkpt lat="42.2152" lon="9.02392">
        <ele>1599</ele>
        <time>2013-06-13T09:33:16Z</time>
      </trkpt>
      <trkpt lat="42.21529" lon="9.02401">
        <ele>1606</ele>
        <time>2013-06-13T09:33:26Z</time>
      </trkpt>
      <trkpt lat="42.21534" lon="9.0241">
        <ele>1615</ele>
        <time>2013-06-13T09:33:35Z</time>
      </trkpt>
      <trkpt lat="42.21537" lon="9.02414">
        <ele>1622</ele>
        <time>2013-06-13T09:33:45Z</time>
      </trkpt>
      <trkpt lat="42.21537" lon="9.02419">
        <ele>1626</ele>
        <time>2013-06-13T09:33:54Z</time>
      </trkpt>
      <trkpt lat="42.21536" lon="9.02422">
        <ele>1628</ele>
        <time>2013-06-13T09:34:03Z</time>
      </trkpt>
      <trkpt lat="42.21547" lon="9.02427">
        <ele>1639</ele>
        <time>2013-06-13T09:34:13Z</time>
      </trkpt>
      <trkpt lat="42.21553" lon="9.02426">
        <ele>1647</ele>
        <time>2013-06-13T09:34:24Z</time>
      </trkpt>
      <trkpt lat="42.21552" lon="9.02423">
        <ele>1648</ele>
        <time>2013-06-13T09:34:36Z</time>
      </trkpt>
      <trkpt lat="42.21555" lon="9.02417">
        <ele>1652</ele>
        <time>2013-06-13T09:34:48Z</time>
      </trkpt>
      <trkpt lat="42.21552" lon="9.02413">
        <ele>1652</ele>
        <time>2013-06-13T09:34:57Z</time>
      </trkpt>
      <trkpt lat="42.21537" lon="9.02411">
        <ele>1642</ele>
        <time>2013-06-13T09:35:08Z</time>
      </trkpt>
      <trkpt lat="42.21537" lon="9.0241">
        <ele>1639</ele>
        <time>2013-06-13T09:35:25Z</time>
      </trkpt>
      <trkpt lat="42.21535" lon="9.02411">
        <ele>1641</ele>
        <time>2013-06-13T09:35:37Z</time>
      </trkpt>
      <trkpt lat="42.21532" lon="9.02405">
        <ele>1642</ele>
        <time>2013-06-13T09:35:46Z</time>
      </trkpt>
      <trkpt lat="42.21531" lon="9.02403">
        <ele>1649</ele>
        <time>2013-06-13T09:35:59Z</time>
      </trkpt>
      <trkpt lat="42.21534" lon="9.02403">
        <ele>1653</ele>
        <time>2013-06-13T09:36:10Z</time>
      </trkpt>
      <trkpt lat="42.21547" lon="9.02404">
        <ele>1664</ele>
        <time>2013-06-13T09:36:20Z</time>
      </trkpt>
      <trkpt lat="42.21544" lon="9.02399">
        <ele>1670</ele>
        <time>2013-06-13T09:36:31Z</time>
      </trkpt>
      <trkpt lat="42.21541" lon="9.02395">
        <ele>1670</ele>
        <time>2013-06-13T09:36:40Z</time>
      </trkpt>
      <trkpt lat="42.21542" lon="9.0239">
        <ele>1672</ele>
        <time>2013-06-13T09:36:57Z</time>
      </trkpt>
      <trkpt lat="42.21538" lon="9.02392">
        <ele>1672</ele>
        <time>2013-06-13T09:37:07Z</time>
      </trkpt>
      <trkpt lat="42.2154" lon="9.02388">
        <ele>1672</ele>
        <time>2013-06-13T09:37:18Z</time>
      </trkpt>
      <trkpt lat="42.21543" lon="9.02383">
        <ele>1673</ele>
        <time>2013-06-13T09:37:29Z</time>
      </trkpt>
      <trkpt lat="42.21544" lon="9.02379">
        <ele>1675</ele>
        <time>2013-06-13T09:37:39Z</time>
      </trkpt>
      <trkpt lat="42.21542" lon="9.02369">
        <ele>1677</ele>
        <time>2013-06-13T09:37:50Z</time>
      </trkpt>
      <trkpt lat="42.21544" lon="9.02363">
        <ele>1678</ele>
        <time>2013-06-13T09:38:00Z</time>
      </trkpt>
      <trkpt lat="42.2154" lon="9.02357">
        <ele>1678</ele>
        <time>2013-06-13T09:38:10Z</time>
      </trkpt>
      <trkpt lat="42.21537" lon="9.02351">
        <ele>1678</ele>
        <time>2013-06-13T09:38:20Z</time>
      </trkpt>
      <trkpt lat="42.2154" lon="9.02345">
        <ele>1678</ele>
        <time>2013-06-13T09:38:29Z</time>
      </trkpt>
      <trkpt lat="42.21537" lon="9.02343">
        <ele>1678</ele>
        <time>2013-06-13T09:38:38Z</time>
      </trkpt>
      <trkpt lat="42.21537" lon="9.02339">
        <ele>1678</ele>
        <time>2013-06-13T09:38:47Z</time>
      </trkpt>
      <trkpt lat="42.21537" lon="9.02335">
        <ele>1678</ele>
        <time>2013-06-13T09:38:56Z</time>
      </trkpt>
      <trkpt lat="42.21539" lon="9.0233">
        <ele>1679</ele>
        <time>2013-06-13T09:39:05Z</time>
      </trkpt>
      <trkpt lat="42.21544" lon="9.02327">
        <ele>1688</ele>
        <time>2013-06-13T09:39:20Z</time>
      </trkpt>
      <trkpt lat="42.2154" lon="9.02326">
        <ele>1691</ele>
        <time>2013-06-13T09:39:34Z</time>
      </trkpt>
      <trkpt lat="42.21541" lon="9.0232">
        <ele>1693</ele>
        <time>2013-06-13T09:39:45Z</time>
      </trkpt>
      <trkpt lat="42.21539" lon="9.02317">
        <ele>1696</ele>
        <time>2013-06-13T09:39:54Z</time>
      </trkpt>
      <trkpt lat="42.21536" lon="9.02313">
        <ele>1698</ele>
        <time>2013-06-13T09:40:03Z</time>
      </trkpt>
      <trkpt lat="42.21532" lon="9.02315">
        <ele>1700</ele>
        <time>2013-06-13T09:40:14Z</time>
      </trkpt>
      <trkpt lat="42.21529" lon="9.0232">
        <ele>1701</ele>
        <time>2013-06-13T09:40:25Z</time>
      </trkpt>
      <trkpt lat="42.21525" lon="9.02316">
        <ele>1703</ele>
        <time>2013-06-13T09:40:35Z</time>
      </trkpt>
      <trkpt lat="42.21526" lon="9.02321">
        <ele>1705</ele>
        <time>2013-06-13T09:40:44Z</time>
      </trkpt>
      <trkpt lat="42.21525" lon="9.02325">
        <ele>1707</ele>
        <time>2013-06-13T09:40:58Z</time>
      </trkpt>
      <trkpt lat="42.21521" lon="9.02326">
        <ele>1708</ele>
        <time>2013-06-13T09:41:09Z</time>
      </trkpt>
      <trkpt lat="42.21517" lon="9.02324">
        <ele>1709</ele>
        <time>2013-06-13T09:41:20Z</time>
      </trkpt>
      <trkpt lat="42.21514" lon="9.02319">
        <ele>1709</ele>
        <time>2013-06-13T09:41:30Z</time>
      </trkpt>
      <trkpt lat="42.21511" lon="9.02312">
        <ele>1710</ele>
        <time>2013-06-13T09:41:41Z</time>
      </trkpt>
      <trkpt lat="42.21504" lon="9.02312">
        <ele>1711</ele>
        <time>2013-06-13T09:41:52Z</time>
      </trkpt>
      <trkpt lat="42.21499" lon="9.02304">
        <ele>1713</ele>
        <time>2013-06-13T09:42:02Z</time>
      </trkpt>
      <trkpt lat="42.21493" lon="9.02304">
        <ele>1716</ele>
        <time>2013-06-13T09:42:12Z</time>
      </trkpt>
      <trkpt lat="42.21488" lon="9.02301">
        <ele>1717</ele>
        <time>2013-06-13T09:42:23Z</time>
      </trkpt>
      <trkpt lat="42.21486" lon="9.023">
        <ele>1719</ele>
        <time>2013-06-13T09:42:34Z</time>
      </trkpt>
      <trkpt lat="42.21484" lon="9.02301">
        <ele>1719</ele>
        <time>2013-06-13T09:42:43Z</time>
      </trkpt>
      <trkpt lat="42.21484" lon="9.02304">
        <ele>1719</ele>
        <time>2013-06-13T09:42:52Z</time>
      </trkpt>
      <trkpt lat="42.21483" lon="9.02311">
        <ele>1719</ele>
        <time>2013-06-13T09:43:24Z</time>
      </trkpt>
      <trkpt lat="42.21485" lon="9.02313">
        <ele>1719</ele>
        <time>2013-06-13T09:43:36Z</time>
      </trkpt>
      <trkpt lat="42.21485" lon="9.02312">
        <ele>1719</ele>
        <time>2013-06-13T09:43:50Z</time>
      </trkpt>
      <trkpt lat="42.21486" lon="9.0231">
        <ele>1719</ele>
        <time>2013-06-13T09:44:19Z</time>
      </trkpt>
      <trkpt lat="42.21487" lon="9.0231">
        <ele>1719</ele>
        <time>2013-06-13T09:44:50Z</time>
      </trkpt>
      <trkpt lat="42.21486" lon="9.02312">
        <ele>1719</ele>
        <time>2013-06-13T09:45:00Z</time>
      </trkpt>
      <trkpt lat="42.21485" lon="9.02314">
        <ele>1719</ele>
        <time>2013-06-13T09:45:21Z</time>
      </trkpt>
      <trkpt lat="42.21486" lon="9.0231">
        <ele>1719</ele>
        <time>2013-06-13T09:45:31Z</time>
      </trkpt>
      <trkpt lat="42.21486" lon="9.02312">
        <ele>1721</ele>
        <time>2013-06-13T09:45:52Z</time>
      </trkpt>
      <trkpt lat="42.21487" lon="9.0231">
        <ele>1721</ele>
        <time>2013-06-13T09:46:04Z</time>
      </trkpt>
      <trkpt lat="42.21487" lon="9.02308">
        <ele>1721</ele>
        <time>2013-06-13T09:46:29Z</time>
      </trkpt>
      <trkpt lat="42.21488" lon="9.02308">
        <ele>1721</ele>
        <time>2013-06-13T09:46:50Z</time>
      </trkpt>
      <trkpt lat="42.21488" lon="9.0231">
        <ele>1721</ele>
        <time>2013-06-13T09:47:13Z</time>
      </trkpt>
      <trkpt lat="42.21487" lon="9.02312">
        <ele>1721</ele>
        <time>2013-06-13T09:47:26Z</time>
      </trkpt>
      <trkpt lat="42.21487" lon="9.02311">
        <ele>1721</ele>
        <time>2013-06-13T09:47:35Z</time>
      </trkpt>
      <trkpt lat="42.21486" lon="9.02309">
        <ele>1721</ele>
        <time>2013-06-13T09:47:49Z</time>
      </trkpt>
      <trkpt lat="42.21486" lon="9.0231">
        <ele>1721</ele>
        <time>2013-06-13T09:48:08Z</time>
      </trkpt>
      <trkpt lat="42.21486" lon="9.02312">
        <ele>1721</ele>
        <time>2013-06-13T09:48:31Z</time>
      </trkpt>
      <trkpt lat="42.21485" lon="9.02309">
        <ele>1721</ele>
        <time>2013-06-13T09:48:40Z</time>
      </trkpt>
      <trkpt lat="42.21487" lon="9.02311">
        <ele>1723</ele>
        <time>2013-06-13T09:49:40Z</time>
      </trkpt>
      <trkpt lat="42.21487" lon="9.02309">
        <ele>1723</ele>
        <time>2013-06-13T09:49:50Z</time>
      </trkpt>
      <trkpt lat="42.21487" lon="9.02308">
        <ele>1723</ele>
        <time>2013-06-13T09:50:22Z</time>
      </trkpt>
      <trkpt lat="42.21484" lon="9.0231">
        <ele>1723</ele>
        <time>2013-06-13T09:50:36Z</time>
      </trkpt>
      <trkpt lat="42.21483" lon="9.0231">
        <ele>1723</ele>
        <time>2013-06-13T09:51:15Z</time>
      </trkpt>
      <trkpt lat="42.21485" lon="9.02307">
        <ele>1724</ele>
        <time>2013-06-13T09:52:03Z</time>
      </trkpt>
      <trkpt lat="42.21486" lon="9.02309">
        <ele>1725</ele>
        <time>2013-06-13T09:52:15Z</time>
      </trkpt>
      <trkpt lat="42.21479" lon="9.02304">
        <ele>1724</ele>
        <time>2013-06-13T09:52:25Z</time>
      </trkpt>
      <trkpt lat="42.21472" lon="9.02299">
        <ele>1724</ele>
        <time>2013-06-13T09:52:35Z</time>
      </trkpt>
      <trkpt lat="42.21468" lon="9.02293">
        <ele>1724</ele>
        <time>2013-06-13T09:52:44Z</time>
      </trkpt>
      <trkpt lat="42.21462" lon="9.02287">
        <ele>1723</ele>
        <time>2013-06-13T09:52:55Z</time>
      </trkpt>
      <trkpt lat="42.21456" lon="9.0228">
        <ele>1723</ele>
        <time>2013-06-13T09:53:06Z</time>
      </trkpt>
      <trkpt lat="42.21452" lon="9.02277">
        <ele>1723</ele>
        <time>2013-06-13T09:53:17Z</time>
      </trkpt>
      <trkpt lat="42.2145" lon="9.02276">
        <ele>1723</ele>
        <time>2013-06-13T09:53:32Z</time>
      </trkpt>
      <trkpt lat="42.21446" lon="9.02275">
        <ele>1723</ele>
        <time>2013-06-13T09:53:53Z</time>
      </trkpt>
      <trkpt lat="42.21446" lon="9.0227">
        <ele>1723</ele>
        <time>2013-06-13T09:54:09Z</time>
      </trkpt>
      <trkpt lat="42.21447" lon="9.02265">
        <ele>1723</ele>
        <time>2013-06-13T09:54:19Z</time>
      </trkpt>
      <trkpt lat="42.21444" lon="9.02258">
        <ele>1723</ele>
        <time>2013-06-13T09:54:28Z</time>
      </trkpt>
      <trkpt lat="42.21443" lon="9.0225">
        <ele>1721</ele>
        <time>2013-06-13T09:54:39Z</time>
      </trkpt>
      <trkpt lat="42.21439" lon="9.02245">
        <ele>1721</ele>
        <time>2013-06-13T09:54:48Z</time>
      </trkpt>
      <trkpt lat="42.21436" lon="9.02238">
        <ele>1721</ele>
        <time>2013-06-13T09:54:57Z</time>
      </trkpt>
      <trkpt lat="42.21432" lon="9.02227">
        <ele>1721</ele>
        <time>2013-06-13T09:55:09Z</time>
      </trkpt>
      <trkpt lat="42.21432" lon="9.02219">
        <ele>1721</ele>
        <time>2013-06-13T09:55:19Z</time>
      </trkpt>
      <trkpt lat="42.21431" lon="9.02213">
        <ele>1721</ele>
        <time>2013-06-13T09:55:33Z</time>
      </trkpt>
      <trkpt lat="42.21428" lon="9.02212">
        <ele>1721</ele>
        <time>2013-06-13T09:55:44Z</time>
      </trkpt>
      <trkpt lat="42.21425" lon="9.02199">
        <ele>1721</ele>
        <time>2013-06-13T09:55:53Z</time>
      </trkpt>
      <trkpt lat="42.21418" lon="9.02198">
        <ele>1721</ele>
        <time>2013-06-13T09:56:02Z</time>
      </trkpt>
      <trkpt lat="42.21416" lon="9.02197">
        <ele>1721</ele>
        <time>2013-06-13T09:56:12Z</time>
      </trkpt>
      <trkpt lat="42.21418" lon="9.02182">
        <ele>1721</ele>
        <time>2013-06-13T09:56:21Z</time>
      </trkpt>
      <trkpt lat="42.21416" lon="9.02173">
        <ele>1721</ele>
        <time>2013-06-13T09:56:30Z</time>
      </trkpt>
      <trkpt lat="42.21412" lon="9.02169">
        <ele>1721</ele>
        <time>2013-06-13T09:56:40Z</time>
      </trkpt>
      <trkpt lat="42.2141" lon="9.02164">
        <ele>1721</ele>
        <time>2013-06-13T09:56:50Z</time>
      </trkpt>
      <trkpt lat="42.21407" lon="9.02154">
        <ele>1721</ele>
        <time>2013-06-13T09:57:00Z</time>
      </trkpt>
      <trkpt lat="42.21406" lon="9.02147">
        <ele>1721</ele>
        <time>2013-06-13T09:57:10Z</time>
      </trkpt>
      <trkpt lat="42.21405" lon="9.02141">
        <ele>1721</ele>
        <time>2013-06-13T09:57:19Z</time>
      </trkpt>
      <trkpt lat="42.21402" lon="9.02134">
        <ele>1720</ele>
        <time>2013-06-13T09:57:31Z</time>
      </trkpt>
      <trkpt lat="42.21399" lon="9.02125">
        <ele>1720</ele>
        <time>2013-06-13T09:57:42Z</time>
      </trkpt>
      <trkpt lat="42.21395" lon="9.02121">
        <ele>1720</ele>
        <time>2013-06-13T09:57:51Z</time>
      </trkpt>
      <trkpt lat="42.21391" lon="9.02114">
        <ele>1720</ele>
        <time>2013-06-13T09:58:01Z</time>
      </trkpt>
      <trkpt lat="42.21392" lon="9.02106">
        <ele>1720</ele>
        <time>2013-06-13T09:58:10Z</time>
      </trkpt>
      <trkpt lat="42.2139" lon="9.02098">
        <ele>1720</ele>
        <time>2013-06-13T09:58:19Z</time>
      </trkpt>
      <trkpt lat="42.2139" lon="9.02087">
        <ele>1720</ele>
        <time>2013-06-13T09:58:29Z</time>
      </trkpt>
      <trkpt lat="42.21389" lon="9.02077">
        <ele>1720</ele>
        <time>2013-06-13T09:58:38Z</time>
      </trkpt>
      <trkpt lat="42.2139" lon="9.0207">
        <ele>1721</ele>
        <time>2013-06-13T09:59:04Z</time>
      </trkpt>
      <trkpt lat="42.2139" lon="9.02071">
        <ele>1723</ele>
        <time>2013-06-13T09:59:48Z</time>
      </trkpt>
      <trkpt lat="42.2139" lon="9.02071">
        <ele>1723</ele>
        <time>2013-06-13T10:00:07Z</time>
      </trkpt>
      <trkpt lat="42.21389" lon="9.0207">
        <ele>1723</ele>
        <time>2013-06-13T10:00:21Z</time>
      </trkpt>
      <trkpt lat="42.2139" lon="9.02071">
        <ele>1723</ele>
        <time>2013-06-13T10:00:40Z</time>
      </trkpt>
      <trkpt lat="42.21392" lon="9.02067">
        <ele>1723</ele>
        <time>2013-06-13T10:00:50Z</time>
      </trkpt>
      <trkpt lat="42.21398" lon="9.02058">
        <ele>1723</ele>
        <time>2013-06-13T10:01:00Z</time>
      </trkpt>
      <trkpt lat="42.21403" lon="9.0205">
        <ele>1723</ele>
        <time>2013-06-13T10:01:11Z</time>
      </trkpt>
      <trkpt lat="42.21404" lon="9.02046">
        <ele>1723</ele>
        <time>2013-06-13T10:01:21Z</time>
      </trkpt>
      <trkpt lat="42.21409" lon="9.02044">
        <ele>1723</ele>
        <time>2013-06-13T10:01:31Z</time>
      </trkpt>
      <trkpt lat="42.21411" lon="9.02039">
        <ele>1723</ele>
        <time>2013-06-13T10:01:40Z</time>
      </trkpt>
      <trkpt lat="42.21413" lon="9.02032">
        <ele>1725</ele>
        <time>2013-06-13T10:01:49Z</time>
      </trkpt>
      <trkpt lat="42.21415" lon="9.02025">
        <ele>1726</ele>
        <time>2013-06-13T10:02:01Z</time>
      </trkpt>
      <trkpt lat="42.21417" lon="9.02018">
        <ele>1727</ele>
        <time>2013-06-13T10:02:11Z</time>
      </trkpt>
      <trkpt lat="42.21421" lon="9.02017">
        <ele>1729</ele>
        <time>2013-06-13T10:02:23Z</time>
      </trkpt>
      <trkpt lat="42.21423" lon="9.02015">
        <ele>1732</ele>
        <time>2013-06-13T10:02:33Z</time>
      </trkpt>
      <trkpt lat="42.21426" lon="9.02011">
        <ele>1732</ele>
        <time>2013-06-13T10:02:43Z</time>
      </trkpt>
      <trkpt lat="42.21428" lon="9.02005">
        <ele>1732</ele>
        <time>2013-06-13T10:02:54Z</time>
      </trkpt>
      <trkpt lat="42.21431" lon="9.02002">
        <ele>1734</ele>
        <time>2013-06-13T10:03:03Z</time>
      </trkpt>
      <trkpt lat="42.21433" lon="9.01995">
        <ele>1737</ele>
        <time>2013-06-13T10:03:12Z</time>
      </trkpt>
      <trkpt lat="42.21432" lon="9.01989">
        <ele>1737</ele>
        <time>2013-06-13T10:03:22Z</time>
      </trkpt>
      <trkpt lat="42.21432" lon="9.01984">
        <ele>1737</ele>
        <time>2013-06-13T10:03:32Z</time>
      </trkpt>
      <trkpt lat="42.21434" lon="9.01977">
        <ele>1737</ele>
        <time>2013-06-13T10:03:43Z</time>
      </trkpt>
      <trkpt lat="42.21435" lon="9.0197">
        <ele>1737</ele>
        <time>2013-06-13T10:03:52Z</time>
      </trkpt>
      <trkpt lat="42.21436" lon="9.01962">
        <ele>1737</ele>
        <time>2013-06-13T10:04:01Z</time>
      </trkpt>
      <trkpt lat="42.21439" lon="9.01955">
        <ele>1738</ele>
        <time>2013-06-13T10:04:11Z</time>
      </trkpt>
      <trkpt lat="42.21443" lon="9.01954">
        <ele>1739</ele>
        <time>2013-06-13T10:04:20Z</time>
      </trkpt>
      <trkpt lat="42.21444" lon="9.01946">
        <ele>1741</ele>
        <time>2013-06-13T10:04:29Z</time>
      </trkpt>
      <trkpt lat="42.21441" lon="9.01937">
        <ele>1742</ele>
        <time>2013-06-13T10:04:39Z</time>
      </trkpt>
      <trkpt lat="42.21436" lon="9.01929">
        <ele>1743</ele>
        <time>2013-06-13T10:04:49Z</time>
      </trkpt>
      <trkpt lat="42.2143" lon="9.01921">
        <ele>1743</ele>
        <time>2013-06-13T10:04:59Z</time>
      </trkpt>
      <trkpt lat="42.21433" lon="9.0191">
        <ele>1743</ele>
        <time>2013-06-13T10:05:09Z</time>
      </trkpt>
      <trkpt lat="42.21433" lon="9.01902">
        <ele>1743</ele>
        <time>2013-06-13T10:05:18Z</time>
      </trkpt>
      <trkpt lat="42.2143" lon="9.01895">
        <ele>1743</ele>
        <time>2013-06-13T10:05:28Z</time>
      </trkpt>
      <trkpt lat="42.21435" lon="9.01891">
        <ele>1743</ele>
        <time>2013-06-13T10:05:39Z</time>
      </trkpt>
      <trkpt lat="42.21435" lon="9.01888">
        <ele>1744</ele>
        <time>2013-06-13T10:05:49Z</time>
      </trkpt>
      <trkpt lat="42.21437" lon="9.01885">
        <ele>1745</ele>
        <time>2013-06-13T10:06:00Z</time>
      </trkpt>
      <trkpt lat="42.21437" lon="9.01879">
        <ele>1748</ele>
        <time>2013-06-13T10:06:10Z</time>
      </trkpt>
      <trkpt lat="42.2144" lon="9.01877">
        <ele>1751</ele>
        <time>2013-06-13T10:06:20Z</time>
      </trkpt>
      <trkpt lat="42.21444" lon="9.01873">
        <ele>1753</ele>
        <time>2013-06-13T10:06:39Z</time>
      </trkpt>
      <trkpt lat="42.21444" lon="9.01868">
        <ele>1754</ele>
        <time>2013-06-13T10:06:52Z</time>
      </trkpt>
      <trkpt lat="42.21442" lon="9.01865">
        <ele>1756</ele>
        <time>2013-06-13T10:07:02Z</time>
      </trkpt>
      <trkpt lat="42.21442" lon="9.01863">
        <ele>1758</ele>
        <time>2013-06-13T10:07:18Z</time>
      </trkpt>
      <trkpt lat="42.21441" lon="9.01859">
        <ele>1758</ele>
        <time>2013-06-13T10:07:31Z</time>
      </trkpt>
      <trkpt lat="42.21436" lon="9.01857">
        <ele>1760</ele>
        <time>2013-06-13T10:07:41Z</time>
      </trkpt>
      <trkpt lat="42.21437" lon="9.01855">
        <ele>1761</ele>
        <time>2013-06-13T10:07:58Z</time>
      </trkpt>
      <trkpt lat="42.21435" lon="9.01853">
        <ele>1761</ele>
        <time>2013-06-13T10:08:08Z</time>
      </trkpt>
      <trkpt lat="42.21434" lon="9.01848">
        <ele>1762</ele>
        <time>2013-06-13T10:08:17Z</time>
      </trkpt>
      <trkpt lat="42.21436" lon="9.01847">
        <ele>1764</ele>
        <time>2013-06-13T10:08:33Z</time>
      </trkpt>
      <trkpt lat="42.21436" lon="9.01844">
        <ele>1764</ele>
        <time>2013-06-13T10:08:45Z</time>
      </trkpt>
      <trkpt lat="42.21434" lon="9.01844">
        <ele>1764</ele>
        <time>2013-06-13T10:08:54Z</time>
      </trkpt>
      <trkpt lat="42.21434" lon="9.01844">
        <ele>1764</ele>
        <time>2013-06-13T10:09:04Z</time>
      </trkpt>
      <trkpt lat="42.21432" lon="9.01841">
        <ele>1764</ele>
        <time>2013-06-13T10:09:13Z</time>
      </trkpt>
      <trkpt lat="42.21434" lon="9.01839">
        <ele>1767</ele>
        <time>2013-06-13T10:09:35Z</time>
      </trkpt>
      <trkpt lat="42.21437" lon="9.01831">
        <ele>1767</ele>
        <time>2013-06-13T10:09:44Z</time>
      </trkpt>
      <trkpt lat="42.21444" lon="9.01826">
        <ele>1767</ele>
        <time>2013-06-13T10:09:54Z</time>
      </trkpt>
      <trkpt lat="42.21449" lon="9.01823">
        <ele>1767</ele>
        <time>2013-06-13T10:10:06Z</time>
      </trkpt>
      <trkpt lat="42.21446" lon="9.01816">
        <ele>1767</ele>
        <time>2013-06-13T10:10:17Z</time>
      </trkpt>
      <trkpt lat="42.21447" lon="9.01811">
        <ele>1767</ele>
        <time>2013-06-13T10:10:26Z</time>
      </trkpt>
      <trkpt lat="42.21451" lon="9.0181">
        <ele>1768</ele>
        <time>2013-06-13T10:10:35Z</time>
      </trkpt>
      <trkpt lat="42.2145" lon="9.01805">
        <ele>1771</ele>
        <time>2013-06-13T10:10:45Z</time>
      </trkpt>
      <trkpt lat="42.2145" lon="9.01799">
        <ele>1772</ele>
        <time>2013-06-13T10:10:55Z</time>
      </trkpt>
      <trkpt lat="42.2145" lon="9.01794">
        <ele>1774</ele>
        <time>2013-06-13T10:11:04Z</time>
      </trkpt>
      <trkpt lat="42.21451" lon="9.01789">
        <ele>1776</ele>
        <time>2013-06-13T10:11:14Z</time>
      </trkpt>
      <trkpt lat="42.21451" lon="9.01784">
        <ele>1777</ele>
        <time>2013-06-13T10:11:24Z</time>
      </trkpt>
      <trkpt lat="42.21453" lon="9.01781">
        <ele>1778</ele>
        <time>2013-06-13T10:11:36Z</time>
      </trkpt>
      <trkpt lat="42.21454" lon="9.01778">
        <ele>1779</ele>
        <time>2013-06-13T10:11:45Z</time>
      </trkpt>
      <trkpt lat="42.21455" lon="9.01775">
        <ele>1781</ele>
        <time>2013-06-13T10:11:59Z</time>
      </trkpt>
      <trkpt lat="42.21456" lon="9.01771">
        <ele>1782</ele>
        <time>2013-06-13T10:12:14Z</time>
      </trkpt>
      <trkpt lat="42.21458" lon="9.01767">
        <ele>1784</ele>
        <time>2013-06-13T10:12:26Z</time>
      </trkpt>
      <trkpt lat="42.21458" lon="9.01766">
        <ele>1784</ele>
        <time>2013-06-13T10:12:38Z</time>
      </trkpt>
      <trkpt lat="42.21458" lon="9.01761">
        <ele>1784</ele>
        <time>2013-06-13T10:12:47Z</time>
      </trkpt>
      <trkpt lat="42.2146" lon="9.01756">
        <ele>1784</ele>
        <time>2013-06-13T10:12:58Z</time>
      </trkpt>
      <trkpt lat="42.21459" lon="9.01756">
        <ele>1785</ele>
        <time>2013-06-13T10:13:08Z</time>
      </trkpt>
      <trkpt lat="42.21461" lon="9.01752">
        <ele>1787</ele>
        <time>2013-06-13T10:13:19Z</time>
      </trkpt>
      <trkpt lat="42.21464" lon="9.0175">
        <ele>1790</ele>
        <time>2013-06-13T10:13:29Z</time>
      </trkpt>
      <trkpt lat="42.21463" lon="9.01747">
        <ele>1795</ele>
        <time>2013-06-13T10:13:38Z</time>
      </trkpt>
      <trkpt lat="42.21463" lon="9.01746">
        <ele>1797</ele>
        <time>2013-06-13T10:13:48Z</time>
      </trkpt>
      <trkpt lat="42.21463" lon="9.01743">
        <ele>1797</ele>
        <time>2013-06-13T10:14:01Z</time>
      </trkpt>
      <trkpt lat="42.21463" lon="9.01737">
        <ele>1799</ele>
        <time>2013-06-13T10:14:10Z</time>
      </trkpt>
      <trkpt lat="42.21461" lon="9.01735">
        <ele>1801</ele>
        <time>2013-06-13T10:14:20Z</time>
      </trkpt>
      <trkpt lat="42.21463" lon="9.01735">
        <ele>1802</ele>
        <time>2013-06-13T10:14:38Z</time>
      </trkpt>
      <trkpt lat="42.21462" lon="9.01736">
        <ele>1802</ele>
        <time>2013-06-13T10:14:47Z</time>
      </trkpt>
      <trkpt lat="42.21459" lon="9.01728">
        <ele>1801</ele>
        <time>2013-06-13T10:14:57Z</time>
      </trkpt>
      <trkpt lat="42.21459" lon="9.01718">
        <ele>1797</ele>
        <time>2013-06-13T10:15:10Z</time>
      </trkpt>
      <trkpt lat="42.21463" lon="9.01718">
        <ele>1797</ele>
        <time>2013-06-13T10:15:19Z</time>
      </trkpt>
      <trkpt lat="42.21464" lon="9.01714">
        <ele>1798</ele>
        <time>2013-06-13T10:15:28Z</time>
      </trkpt>
      <trkpt lat="42.21466" lon="9.01713">
        <ele>1800</ele>
        <time>2013-06-13T10:15:41Z</time>
      </trkpt>
      <trkpt lat="42.21463" lon="9.01704">
        <ele>1801</ele>
        <time>2013-06-13T10:15:50Z</time>
      </trkpt>
      <trkpt lat="42.21463" lon="9.01696">
        <ele>1804</ele>
        <time>2013-06-13T10:15:59Z</time>
      </trkpt>
      <trkpt lat="42.21468" lon="9.01695">
        <ele>1806</ele>
        <time>2013-06-13T10:16:09Z</time>
      </trkpt>
      <trkpt lat="42.21473" lon="9.01699">
        <ele>1807</ele>
        <time>2013-06-13T10:16:19Z</time>
      </trkpt>
      <trkpt lat="42.21474" lon="9.01698">
        <ele>1807</ele>
        <time>2013-06-13T10:16:28Z</time>
      </trkpt>
      <trkpt lat="42.21475" lon="9.01697">
        <ele>1807</ele>
        <time>2013-06-13T10:16:39Z</time>
      </trkpt>
      <trkpt lat="42.21476" lon="9.0169">
        <ele>1807</ele>
        <time>2013-06-13T10:16:49Z</time>
      </trkpt>
      <trkpt lat="42.21473" lon="9.01688">
        <ele>1807</ele>
        <time>2013-06-13T10:16:58Z</time>
      </trkpt>
      <trkpt lat="42.21466" lon="9.0168">
        <ele>1807</ele>
        <time>2013-06-13T10:17:07Z</time>
      </trkpt>
      <trkpt lat="42.21465" lon="9.01676">
        <ele>1807</ele>
        <time>2013-06-13T10:17:16Z</time>
      </trkpt>
      <trkpt lat="42.21463" lon="9.01672">
        <ele>1807</ele>
        <time>2013-06-13T10:17:25Z</time>
      </trkpt>
      <trkpt lat="42.21473" lon="9.01674">
        <ele>1809</ele>
        <time>2013-06-13T10:17:40Z</time>
      </trkpt>
      <trkpt lat="42.21474" lon="9.0167">
        <ele>1814</ele>
        <time>2013-06-13T10:17:50Z</time>
      </trkpt>
      <trkpt lat="42.21476" lon="9.01665">
        <ele>1814</ele>
        <time>2013-06-13T10:17:59Z</time>
      </trkpt>
      <trkpt lat="42.21474" lon="9.01661">
        <ele>1817</ele>
        <time>2013-06-13T10:18:08Z</time>
      </trkpt>
      <trkpt lat="42.21471" lon="9.01655">
        <ele>1818</ele>
        <time>2013-06-13T10:18:22Z</time>
      </trkpt>
      <trkpt lat="42.21472" lon="9.01653">
        <ele>1818</ele>
        <time>2013-06-13T10:18:33Z</time>
      </trkpt>
      <trkpt lat="42.21477" lon="9.01653">
        <ele>1820</ele>
        <time>2013-06-13T10:18:44Z</time>
      </trkpt>
      <trkpt lat="42.21473" lon="9.01648">
        <ele>1821</ele>
        <time>2013-06-13T10:18:53Z</time>
      </trkpt>
      <trkpt lat="42.21478" lon="9.01646">
        <ele>1822</ele>
        <time>2013-06-13T10:19:04Z</time>
      </trkpt>
      <trkpt lat="42.21485" lon="9.01649">
        <ele>1822</ele>
        <time>2013-06-13T10:19:13Z</time>
      </trkpt>
      <trkpt lat="42.21488" lon="9.01643">
        <ele>1827</ele>
        <time>2013-06-13T10:19:23Z</time>
      </trkpt>
      <trkpt lat="42.21489" lon="9.01644">
        <ele>1834</ele>
        <time>2013-06-13T10:19:34Z</time>
      </trkpt>
      <trkpt lat="42.21493" lon="9.01649">
        <ele>1843</ele>
        <time>2013-06-13T10:19:43Z</time>
      </trkpt>
      <trkpt lat="42.21497" lon="9.01645">
        <ele>1847</ele>
        <time>2013-06-13T10:19:52Z</time>
      </trkpt>
      <trkpt lat="42.21495" lon="9.0164">
        <ele>1842</ele>
        <time>2013-06-13T10:20:06Z</time>
      </trkpt>
      <trkpt lat="42.21495" lon="9.01636">
        <ele>1842</ele>
        <time>2013-06-13T10:20:15Z</time>
      </trkpt>
      <trkpt lat="42.21495" lon="9.01632">
        <ele>1841</ele>
        <time>2013-06-13T10:20:29Z</time>
      </trkpt>
      <trkpt lat="42.21499" lon="9.01631">
        <ele>1841</ele>
        <time>2013-06-13T10:20:39Z</time>
      </trkpt>
      <trkpt lat="42.21498" lon="9.01629">
        <ele>1841</ele>
        <time>2013-06-13T10:20:49Z</time>
      </trkpt>
      <trkpt lat="42.21496" lon="9.01625">
        <ele>1841</ele>
        <time>2013-06-13T10:20:59Z</time>
      </trkpt>
      <trkpt lat="42.21495" lon="9.01621">
        <ele>1842</ele>
        <time>2013-06-13T10:21:10Z</time>
      </trkpt>
      <trkpt lat="42.21496" lon="9.01621">
        <ele>1844</ele>
        <time>2013-06-13T10:21:20Z</time>
      </trkpt>
      <trkpt lat="42.21496" lon="9.01622">
        <ele>1848</ele>
        <time>2013-06-13T10:21:40Z</time>
      </trkpt>
      <trkpt lat="42.21492" lon="9.01617">
        <ele>1848</ele>
        <time>2013-06-13T10:21:59Z</time>
      </trkpt>
      <trkpt lat="42.21489" lon="9.01612">
        <ele>1848</ele>
        <time>2013-06-13T10:22:13Z</time>
      </trkpt>
      <trkpt lat="42.21485" lon="9.01613">
        <ele>1848</ele>
        <time>2013-06-13T10:22:32Z</time>
      </trkpt>
      <trkpt lat="42.21486" lon="9.01612">
        <ele>1849</ele>
        <time>2013-06-13T10:22:46Z</time>
      </trkpt>
      <trkpt lat="42.21487" lon="9.0161">
        <ele>1849</ele>
        <time>2013-06-13T10:22:57Z</time>
      </trkpt>
      <trkpt lat="42.21487" lon="9.01611">
        <ele>1848</ele>
        <time>2013-06-13T10:23:08Z</time>
      </trkpt>
      <trkpt lat="42.21487" lon="9.01613">
        <ele>1847</ele>
        <time>2013-06-13T10:23:20Z</time>
      </trkpt>
      <trkpt lat="42.21486" lon="9.01611">
        <ele>1847</ele>
        <time>2013-06-13T10:23:40Z</time>
      </trkpt>
      <trkpt lat="42.21485" lon="9.01608">
        <ele>1845</ele>
        <time>2013-06-13T10:23:57Z</time>
      </trkpt>
      <trkpt lat="42.21484" lon="9.01605">
        <ele>1848</ele>
        <time>2013-06-13T10:24:11Z</time>
      </trkpt>
      <trkpt lat="42.21481" lon="9.01604">
        <ele>1848</ele>
        <time>2013-06-13T10:24:23Z</time>
      </trkpt>
      <trkpt lat="42.21479" lon="9.01605">
        <ele>1848</ele>
        <time>2013-06-13T10:24:41Z</time>
      </trkpt>
      <trkpt lat="42.21477" lon="9.01605">
        <ele>1848</ele>
        <time>2013-06-13T10:24:50Z</time>
      </trkpt>
      <trkpt lat="42.21473" lon="9.01607">
        <ele>1848</ele>
        <time>2013-06-13T10:25:01Z</time>
      </trkpt>
      <trkpt lat="42.21466" lon="9.01603">
        <ele>1848</ele>
        <time>2013-06-13T10:25:11Z</time>
      </trkpt>
      <trkpt lat="42.21463" lon="9.016">
        <ele>1848</ele>
        <time>2013-06-13T10:25:21Z</time>
      </trkpt>
      <trkpt lat="42.2146" lon="9.01596">
        <ele>1846</ele>
        <time>2013-06-13T10:25:33Z</time>
      </trkpt>
      <trkpt lat="42.2146" lon="9.01593">
        <ele>1846</ele>
        <time>2013-06-13T10:25:44Z</time>
      </trkpt>
      <trkpt lat="42.2146" lon="9.01591">
        <ele>1846</ele>
        <time>2013-06-13T10:25:53Z</time>
      </trkpt>
      <trkpt lat="42.21456" lon="9.01586">
        <ele>1846</ele>
        <time>2013-06-13T10:26:04Z</time>
      </trkpt>
      <trkpt lat="42.21454" lon="9.01583">
        <ele>1846</ele>
        <time>2013-06-13T10:26:13Z</time>
      </trkpt>
      <trkpt lat="42.21455" lon="9.01579">
        <ele>1846</ele>
        <time>2013-06-13T10:26:22Z</time>
      </trkpt>
      <trkpt lat="42.21458" lon="9.01573">
        <ele>1846</ele>
        <time>2013-06-13T10:26:33Z</time>
      </trkpt>
      <trkpt lat="42.21459" lon="9.01573">
        <ele>1847</ele>
        <time>2013-06-13T10:26:48Z</time>
      </trkpt>
      <trkpt lat="42.21457" lon="9.01568">
        <ele>1850</ele>
        <time>2013-06-13T10:27:01Z</time>
      </trkpt>
      <trkpt lat="42.21452" lon="9.01561">
        <ele>1850</ele>
        <time>2013-06-13T10:27:21Z</time>
      </trkpt>
      <trkpt lat="42.21448" lon="9.01556">
        <ele>1850</ele>
        <time>2013-06-13T10:27:39Z</time>
      </trkpt>
      <trkpt lat="42.21445" lon="9.01551">
        <ele>1851</ele>
        <time>2013-06-13T10:27:50Z</time>
      </trkpt>
      <trkpt lat="42.21446" lon="9.01545">
        <ele>1851</ele>
        <time>2013-06-13T10:27:59Z</time>
      </trkpt>
      <trkpt lat="42.21447" lon="9.0154">
        <ele>1853</ele>
        <time>2013-06-13T10:28:08Z</time>
      </trkpt>
      <trkpt lat="42.21447" lon="9.01535">
        <ele>1854</ele>
        <time>2013-06-13T10:28:17Z</time>
      </trkpt>
      <trkpt lat="42.21446" lon="9.01532">
        <ele>1855</ele>
        <time>2013-06-13T10:28:26Z</time>
      </trkpt>
      <trkpt lat="42.21443" lon="9.01525">
        <ele>1856</ele>
        <time>2013-06-13T10:28:36Z</time>
      </trkpt>
      <trkpt lat="42.21442" lon="9.01521">
        <ele>1856</ele>
        <time>2013-06-13T10:28:45Z</time>
      </trkpt>
      <trkpt lat="42.21439" lon="9.01515">
        <ele>1857</ele>
        <time>2013-06-13T10:28:58Z</time>
      </trkpt>
      <trkpt lat="42.21438" lon="9.01512">
        <ele>1858</ele>
        <time>2013-06-13T10:29:09Z</time>
      </trkpt>
      <trkpt lat="42.21439" lon="9.01508">
        <ele>1860</ele>
        <time>2013-06-13T10:29:18Z</time>
      </trkpt>
      <trkpt lat="42.21442" lon="9.01503">
        <ele>1869</ele>
        <time>2013-06-13T10:29:34Z</time>
      </trkpt>
      <trkpt lat="42.21438" lon="9.01499">
        <ele>1871</ele>
        <time>2013-06-13T10:29:45Z</time>
      </trkpt>
      <trkpt lat="42.21436" lon="9.01494">
        <ele>1871</ele>
        <time>2013-06-13T10:29:54Z</time>
      </trkpt>
      <trkpt lat="42.21435" lon="9.01493">
        <ele>1875</ele>
        <time>2013-06-13T10:30:16Z</time>
      </trkpt>
      <trkpt lat="42.21433" lon="9.01491">
        <ele>1875</ele>
        <time>2013-06-13T10:30:27Z</time>
      </trkpt>
      <trkpt lat="42.21439" lon="9.01493">
        <ele>1875</ele>
        <time>2013-06-13T10:30:37Z</time>
      </trkpt>
      <trkpt lat="42.21436" lon="9.01492">
        <ele>1875</ele>
        <time>2013-06-13T10:30:47Z</time>
      </trkpt>
      <trkpt lat="42.21434" lon="9.0149">
        <ele>1873</ele>
        <time>2013-06-13T10:30:57Z</time>
      </trkpt>
      <trkpt lat="42.21431" lon="9.01488">
        <ele>1873</ele>
        <time>2013-06-13T10:31:13Z</time>
      </trkpt>
      <trkpt lat="42.21433" lon="9.01491">
        <ele>1873</ele>
        <time>2013-06-13T10:31:22Z</time>
      </trkpt>
      <trkpt lat="42.21432" lon="9.01493">
        <ele>1881</ele>
        <time>2013-06-13T10:31:31Z</time>
      </trkpt>
      <trkpt lat="42.2143" lon="9.01488">
        <ele>1877</ele>
        <time>2013-06-13T10:31:41Z</time>
      </trkpt>
      <trkpt lat="42.21433" lon="9.01487">
        <ele>1875</ele>
        <time>2013-06-13T10:31:55Z</time>
      </trkpt>
      <trkpt lat="42.2143" lon="9.01482">
        <ele>1875</ele>
        <time>2013-06-13T10:32:06Z</time>
      </trkpt>
      <trkpt lat="42.2143" lon="9.01482">
        <ele>1875</ele>
        <time>2013-06-13T10:32:26Z</time>
      </trkpt>
      <trkpt lat="42.21429" lon="9.01482">
        <ele>1877</ele>
        <time>2013-06-13T10:32:58Z</time>
      </trkpt>
      <trkpt lat="42.21432" lon="9.01482">
        <ele>1880</ele>
        <time>2013-06-13T10:33:14Z</time>
      </trkpt>
      <trkpt lat="42.21431" lon="9.01482">
        <ele>1881</ele>
        <time>2013-06-13T10:33:24Z</time>
      </trkpt>
      <trkpt lat="42.2143" lon="9.0148">
        <ele>1882</ele>
        <time>2013-06-13T10:33:34Z</time>
      </trkpt>
      <trkpt lat="42.21425" lon="9.01476">
        <ele>1882</ele>
        <time>2013-06-13T10:33:49Z</time>
      </trkpt>
      <trkpt lat="42.21423" lon="9.01475">
        <ele>1882</ele>
        <time>2013-06-13T10:33:58Z</time>
      </trkpt>
      <trkpt lat="42.2142" lon="9.01476">
        <ele>1890</ele>
        <time>2013-06-13T10:34:08Z</time>
      </trkpt>
      <trkpt lat="42.21419" lon="9.01477">
        <ele>1901</ele>
        <time>2013-06-13T10:34:19Z</time>
      </trkpt>
      <trkpt lat="42.21418" lon="9.01476">
        <ele>1905</ele>
        <time>2013-06-13T10:34:30Z</time>
      </trkpt>
      <trkpt lat="42.21414" lon="9.01475">
        <ele>1908</ele>
        <time>2013-06-13T10:34:39Z</time>
      </trkpt>
      <trkpt lat="42.21416" lon="9.0148">
        <ele>1921</ele>
        <time>2013-06-13T10:34:53Z</time>
      </trkpt>
      <trkpt lat="42.21417" lon="9.01472">
        <ele>1927</ele>
        <time>2013-06-13T10:35:02Z</time>
      </trkpt>
      <trkpt lat="42.21413" lon="9.01468">
        <ele>1926</ele>
        <time>2013-06-13T10:35:11Z</time>
      </trkpt>
      <trkpt lat="42.21409" lon="9.01462">
        <ele>1924</ele>
        <time>2013-06-13T10:35:22Z</time>
      </trkpt>
      <trkpt lat="42.21403" lon="9.01447">
        <ele>1908</ele>
        <time>2013-06-13T10:35:32Z</time>
      </trkpt>
      <trkpt lat="42.21401" lon="9.01446">
        <ele>1901</ele>
        <time>2013-06-13T10:35:44Z</time>
      </trkpt>
      <trkpt lat="42.21401" lon="9.01445">
        <ele>1902</ele>
        <time>2013-06-13T10:35:56Z</time>
      </trkpt>
      <trkpt lat="42.214" lon="9.01448">
        <ele>1912</ele>
        <time>2013-06-13T10:36:06Z</time>
      </trkpt>
      <trkpt lat="42.21396" lon="9.01445">
        <ele>1915</ele>
        <time>2013-06-13T10:36:16Z</time>
      </trkpt>
      <trkpt lat="42.21392" lon="9.01445">
        <ele>1915</ele>
        <time>2013-06-13T10:36:26Z</time>
      </trkpt>
      <trkpt lat="42.21388" lon="9.01445">
        <ele>1912</ele>
        <time>2013-06-13T10:36:37Z</time>
      </trkpt>
      <trkpt lat="42.21384" lon="9.01446">
        <ele>1910</ele>
        <time>2013-06-13T10:36:49Z</time>
      </trkpt>
      <trkpt lat="42.21381" lon="9.01447">
        <ele>1910</ele>
        <time>2013-06-13T10:36:59Z</time>
      </trkpt>
      <trkpt lat="42.21377" lon="9.01448">
        <ele>1910</ele>
        <time>2013-06-13T10:37:10Z</time>
      </trkpt>
      <trkpt lat="42.21372" lon="9.01448">
        <ele>1910</ele>
        <time>2013-06-13T10:37:21Z</time>
      </trkpt>
      <trkpt lat="42.21368" lon="9.0145">
        <ele>1912</ele>
        <time>2013-06-13T10:37:35Z</time>
      </trkpt>
      <trkpt lat="42.21363" lon="9.01454">
        <ele>1912</ele>
        <time>2013-06-13T10:37:45Z</time>
      </trkpt>
      <trkpt lat="42.21358" lon="9.01458">
        <ele>1912</ele>
        <time>2013-06-13T10:37:55Z</time>
      </trkpt>
      <trkpt lat="42.21359" lon="9.01457">
        <ele>1912</ele>
        <time>2013-06-13T10:38:04Z</time>
      </trkpt>
      <trkpt lat="42.21362" lon="9.01455">
        <ele>1912</ele>
        <time>2013-06-13T10:38:17Z</time>
      </trkpt>
      <trkpt lat="42.21363" lon="9.01457">
        <ele>1912</ele>
        <time>2013-06-13T10:38:44Z</time>
      </trkpt>
      <trkpt lat="42.21364" lon="9.01458">
        <ele>1914</ele>
        <time>2013-06-13T10:39:16Z</time>
      </trkpt>
      <trkpt lat="42.21363" lon="9.01457">
        <ele>1915</ele>
        <time>2013-06-13T10:39:46Z</time>
      </trkpt>
      <trkpt lat="42.2136" lon="9.01459">
        <ele>1915</ele>
        <time>2013-06-13T10:39:55Z</time>
      </trkpt>
      <trkpt lat="42.21349" lon="9.01457">
        <ele>1914</ele>
        <time>2013-06-13T10:40:05Z</time>
      </trkpt>
      <trkpt lat="42.21347" lon="9.01454">
        <ele>1910</ele>
        <time>2013-06-13T10:40:14Z</time>
      </trkpt>
      <trkpt lat="42.21346" lon="9.01449">
        <ele>1910</ele>
        <time>2013-06-13T10:40:23Z</time>
      </trkpt>
      <trkpt lat="42.21346" lon="9.01442">
        <ele>1912</ele>
        <time>2013-06-13T10:40:33Z</time>
      </trkpt>
      <trkpt lat="42.21345" lon="9.01437">
        <ele>1915</ele>
        <time>2013-06-13T10:40:45Z</time>
      </trkpt>
      <trkpt lat="42.21345" lon="9.01432">
        <ele>1916</ele>
        <time>2013-06-13T10:40:54Z</time>
      </trkpt>
      <trkpt lat="42.21342" lon="9.01425">
        <ele>1918</ele>
        <time>2013-06-13T10:41:04Z</time>
      </trkpt>
      <trkpt lat="42.21342" lon="9.01419">
        <ele>1921</ele>
        <time>2013-06-13T10:41:14Z</time>
      </trkpt>
      <trkpt lat="42.21342" lon="9.01408">
        <ele>1923</ele>
        <time>2013-06-13T10:41:24Z</time>
      </trkpt>
      <trkpt lat="42.2134" lon="9.014">
        <ele>1926</ele>
        <time>2013-06-13T10:41:33Z</time>
      </trkpt>
      <trkpt lat="42.21338" lon="9.01398">
        <ele>1927</ele>
        <time>2013-06-13T10:41:42Z</time>
      </trkpt>
      <trkpt lat="42.21337" lon="9.0139">
        <ele>1928</ele>
        <time>2013-06-13T10:41:53Z</time>
      </trkpt>
      <trkpt lat="42.21336" lon="9.01385">
        <ele>1928</ele>
        <time>2013-06-13T10:42:05Z</time>
      </trkpt>
      <trkpt lat="42.21337" lon="9.01379">
        <ele>1928</ele>
        <time>2013-06-13T10:42:15Z</time>
      </trkpt>
      <trkpt lat="42.2134" lon="9.01378">
        <ele>1928</ele>
        <time>2013-06-13T10:42:24Z</time>
      </trkpt>
      <trkpt lat="42.21345" lon="9.01376">
        <ele>1933</ele>
        <time>2013-06-13T10:42:52Z</time>
      </trkpt>
      <trkpt lat="42.2135" lon="9.01369">
        <ele>1934</ele>
        <time>2013-06-13T10:43:03Z</time>
      </trkpt>
      <trkpt lat="42.21353" lon="9.01371">
        <ele>1935</ele>
        <time>2013-06-13T10:43:12Z</time>
      </trkpt>
      <trkpt lat="42.21355" lon="9.0137">
        <ele>1936</ele>
        <time>2013-06-13T10:43:21Z</time>
      </trkpt>
      <trkpt lat="42.21357" lon="9.01365">
        <ele>1936</ele>
        <time>2013-06-13T10:43:30Z</time>
      </trkpt>
      <trkpt lat="42.2136" lon="9.01362">
        <ele>1937</ele>
        <time>2013-06-13T10:43:39Z</time>
      </trkpt>
      <trkpt lat="42.21365" lon="9.01359">
        <ele>1938</ele>
        <time>2013-06-13T10:43:48Z</time>
      </trkpt>
      <trkpt lat="42.21364" lon="9.01358">
        <ele>1938</ele>
        <time>2013-06-13T10:43:57Z</time>
      </trkpt>
      <trkpt lat="42.21365" lon="9.01357">
        <ele>1940</ele>
        <time>2013-06-13T10:44:31Z</time>
      </trkpt>
      <trkpt lat="42.21365" lon="9.01353">
        <ele>1940</ele>
        <time>2013-06-13T10:44:45Z</time>
      </trkpt>
      <trkpt lat="42.21363" lon="9.01358">
        <ele>1940</ele>
        <time>2013-06-13T10:45:29Z</time>
      </trkpt>
      <trkpt lat="42.21364" lon="9.01357">
        <ele>1940</ele>
        <time>2013-06-13T10:45:43Z</time>
      </trkpt>
      <trkpt lat="42.21364" lon="9.01355">
        <ele>1940</ele>
        <time>2013-06-13T10:45:53Z</time>
      </trkpt>
      <trkpt lat="42.21364" lon="9.01354">
        <ele>1940</ele>
        <time>2013-06-13T10:46:08Z</time>
      </trkpt>
      <trkpt lat="42.21363" lon="9.01351">
        <ele>1940</ele>
        <time>2013-06-13T10:46:17Z</time>
      </trkpt>
      <trkpt lat="42.21359" lon="9.01352">
        <ele>1940</ele>
        <time>2013-06-13T10:46:32Z</time>
      </trkpt>
      <trkpt lat="42.21357" lon="9.01354">
        <ele>1940</ele>
        <time>2013-06-13T10:46:43Z</time>
      </trkpt>
      <trkpt lat="42.21356" lon="9.01353">
        <ele>1939</ele>
        <time>2013-06-13T10:46:59Z</time>
      </trkpt>
      <trkpt lat="42.21354" lon="9.01351">
        <ele>1939</ele>
        <time>2013-06-13T10:47:16Z</time>
      </trkpt>
      <trkpt lat="42.21354" lon="9.01348">
        <ele>1938</ele>
        <time>2013-06-13T10:47:42Z</time>
      </trkpt>
      <trkpt lat="42.21355" lon="9.01349">
        <ele>1938</ele>
        <time>2013-06-13T10:47:51Z</time>
      </trkpt>
      <trkpt lat="42.21355" lon="9.01348">
        <ele>1937</ele>
        <time>2013-06-13T10:49:38Z</time>
      </trkpt>
      <trkpt lat="42.21354" lon="9.01347">
        <ele>1937</ele>
        <time>2013-06-13T10:50:19Z</time>
      </trkpt>
      <trkpt lat="42.21353" lon="9.01348">
        <ele>1937</ele>
        <time>2013-06-13T10:50:45Z</time>
      </trkpt>
      <trkpt lat="42.21353" lon="9.01349">
        <ele>1933</ele>
        <time>2013-06-13T10:51:08Z</time>
      </trkpt>
      <trkpt lat="42.21355" lon="9.0135">
        <ele>1935</ele>
        <time>2013-06-13T10:52:04Z</time>
      </trkpt>
      <trkpt lat="42.21354" lon="9.01351">
        <ele>1935</ele>
        <time>2013-06-13T10:52:38Z</time>
      </trkpt>
      <trkpt lat="42.21355" lon="9.01353">
        <ele>1936</ele>
        <time>2013-06-13T10:52:47Z</time>
      </trkpt>
      <trkpt lat="42.21356" lon="9.01353">
        <ele>1937</ele>
        <time>2013-06-13T10:53:05Z</time>
      </trkpt>
      <trkpt lat="42.21355" lon="9.01351">
        <ele>1937</ele>
        <time>2013-06-13T10:53:39Z</time>
      </trkpt>
      <trkpt lat="42.21354" lon="9.01351">
        <ele>1937</ele>
        <time>2013-06-13T10:53:55Z</time>
      </trkpt>
      <trkpt lat="42.21352" lon="9.0135">
        <ele>1937</ele>
        <time>2013-06-13T10:54:13Z</time>
      </trkpt>
      <trkpt lat="42.21355" lon="9.01351">
        <ele>1936</ele>
        <time>2013-06-13T10:55:02Z</time>
      </trkpt>
      <trkpt lat="42.21354" lon="9.01352">
        <ele>1936</ele>
        <time>2013-06-13T10:55:17Z</time>
      </trkpt>
      <trkpt lat="42.21355" lon="9.01352">
        <ele>1941</ele>
        <time>2013-06-13T10:56:01Z</time>
      </trkpt>
      <trkpt lat="42.21357" lon="9.01351">
        <ele>1941</ele>
        <time>2013-06-13T10:56:42Z</time>
      </trkpt>
      <trkpt lat="42.21357" lon="9.01353">
        <ele>1940</ele>
        <time>2013-06-13T10:56:55Z</time>
      </trkpt>
      <trkpt lat="42.21355" lon="9.01351">
        <ele>1938</ele>
        <time>2013-06-13T10:57:04Z</time>
      </trkpt>
      <trkpt lat="42.21356" lon="9.01353">
        <ele>1928</ele>
        <time>2013-06-13T10:57:17Z</time>
      </trkpt>
      <trkpt lat="42.21358" lon="9.01357">
        <ele>1928</ele>
        <time>2013-06-13T10:57:27Z</time>
      </trkpt>
      <trkpt lat="42.2136" lon="9.01357">
        <ele>1926</ele>
        <time>2013-06-13T10:57:37Z</time>
      </trkpt>
      <trkpt lat="42.21367" lon="9.01358">
        <ele>1927</ele>
        <time>2013-06-13T10:57:46Z</time>
      </trkpt>
      <trkpt lat="42.21365" lon="9.01363">
        <ele>1927</ele>
        <time>2013-06-13T10:57:56Z</time>
      </trkpt>
      <trkpt lat="42.21361" lon="9.0137">
        <ele>1933</ele>
        <time>2013-06-13T10:58:05Z</time>
      </trkpt>
      <trkpt lat="42.21362" lon="9.01371">
        <ele>1934</ele>
        <time>2013-06-13T10:58:17Z</time>
      </trkpt>
      <trkpt lat="42.21359" lon="9.01375">
        <ele>1934</ele>
        <time>2013-06-13T10:58:29Z</time>
      </trkpt>
      <trkpt lat="42.21354" lon="9.01377">
        <ele>1934</ele>
        <time>2013-06-13T10:58:39Z</time>
      </trkpt>
      <trkpt lat="42.21347" lon="9.01383">
        <ele>1934</ele>
        <time>2013-06-13T10:58:48Z</time>
      </trkpt>
      <trkpt lat="42.21341" lon="9.01382">
        <ele>1934</ele>
        <time>2013-06-13T10:59:00Z</time>
      </trkpt>
      <trkpt lat="42.2134" lon="9.01382">
        <ele>1931</ele>
        <time>2013-06-13T10:59:11Z</time>
      </trkpt>
      <trkpt lat="42.21337" lon="9.01385">
        <ele>1930</ele>
        <time>2013-06-13T10:59:20Z</time>
      </trkpt>
      <trkpt lat="42.21339" lon="9.01388">
        <ele>1927</ele>
        <time>2013-06-13T10:59:38Z</time>
      </trkpt>
      <trkpt lat="42.2134" lon="9.01388">
        <ele>1927</ele>
        <time>2013-06-13T10:59:50Z</time>
      </trkpt>
      <trkpt lat="42.21338" lon="9.01393">
        <ele>1926</ele>
        <time>2013-06-13T11:00:00Z</time>
      </trkpt>
      <trkpt lat="42.2134" lon="9.01396">
        <ele>1924</ele>
        <time>2013-06-13T11:00:16Z</time>
      </trkpt>
      <trkpt lat="42.21339" lon="9.01406">
        <ele>1924</ele>
        <time>2013-06-13T11:00:27Z</time>
      </trkpt>
      <trkpt lat="42.21342" lon="9.01413">
        <ele>1923</ele>
        <time>2013-06-13T11:00:38Z</time>
      </trkpt>
      <trkpt lat="42.21346" lon="9.01418">
        <ele>1920</ele>
        <time>2013-06-13T11:00:49Z</time>
      </trkpt>
      <trkpt lat="42.21348" lon="9.01426">
        <ele>1920</ele>
        <time>2013-06-13T11:00:58Z</time>
      </trkpt>
      <trkpt lat="42.21349" lon="9.01434">
        <ele>1918</ele>
        <time>2013-06-13T11:01:09Z</time>
      </trkpt>
      <trkpt lat="42.2135" lon="9.01439">
        <ele>1917</ele>
        <time>2013-06-13T11:01:20Z</time>
      </trkpt>
      <trkpt lat="42.21349" lon="9.01443">
        <ele>1916</ele>
        <time>2013-06-13T11:01:30Z</time>
      </trkpt>
      <trkpt lat="42.21347" lon="9.01449">
        <ele>1916</ele>
        <time>2013-06-13T11:01:39Z</time>
      </trkpt>
      <trkpt lat="42.21351" lon="9.01451">
        <ele>1912</ele>
        <time>2013-06-13T11:01:49Z</time>
      </trkpt>
      <trkpt lat="42.21354" lon="9.01453">
        <ele>1910</ele>
        <time>2013-06-13T11:02:02Z</time>
      </trkpt>
      <trkpt lat="42.21358" lon="9.01456">
        <ele>1910</ele>
        <time>2013-06-13T11:02:16Z</time>
      </trkpt>
      <trkpt lat="42.21355" lon="9.01456">
        <ele>1910</ele>
        <time>2013-06-13T11:02:29Z</time>
      </trkpt>
      <trkpt lat="42.21361" lon="9.01458">
        <ele>1910</ele>
        <time>2013-06-13T11:02:38Z</time>
      </trkpt>
      <trkpt lat="42.21369" lon="9.0146">
        <ele>1910</ele>
        <time>2013-06-13T11:02:47Z</time>
      </trkpt>
      <trkpt lat="42.21376" lon="9.01458">
        <ele>1908</ele>
        <time>2013-06-13T11:03:01Z</time>
      </trkpt>
      <trkpt lat="42.21375" lon="9.0145">
        <ele>1905</ele>
        <time>2013-06-13T11:03:12Z</time>
      </trkpt>
      <trkpt lat="42.21377" lon="9.01445">
        <ele>1905</ele>
        <time>2013-06-13T11:03:22Z</time>
      </trkpt>
      <trkpt lat="42.21381" lon="9.01447">
        <ele>1905</ele>
        <time>2013-06-13T11:03:34Z</time>
      </trkpt>
      <trkpt lat="42.21385" lon="9.01447">
        <ele>1904</ele>
        <time>2013-06-13T11:03:45Z</time>
      </trkpt>
      <trkpt lat="42.21387" lon="9.01445">
        <ele>1902</ele>
        <time>2013-06-13T11:03:55Z</time>
      </trkpt>
      <trkpt lat="42.21389" lon="9.01443">
        <ele>1900</ele>
        <time>2013-06-13T11:04:04Z</time>
      </trkpt>
      <trkpt lat="42.21393" lon="9.01441">
        <ele>1898</ele>
        <time>2013-06-13T11:04:16Z</time>
      </trkpt>
      <trkpt lat="42.21397" lon="9.01439">
        <ele>1897</ele>
        <time>2013-06-13T11:04:27Z</time>
      </trkpt>
      <trkpt lat="42.21402" lon="9.0144">
        <ele>1896</ele>
        <time>2013-06-13T11:04:38Z</time>
      </trkpt>
      <trkpt lat="42.21402" lon="9.01444">
        <ele>1896</ele>
        <time>2013-06-13T11:04:48Z</time>
      </trkpt>
      <trkpt lat="42.21407" lon="9.01447">
        <ele>1894</ele>
        <time>2013-06-13T11:05:00Z</time>
      </trkpt>
      <trkpt lat="42.21409" lon="9.01452">
        <ele>1893</ele>
        <time>2013-06-13T11:05:11Z</time>
      </trkpt>
      <trkpt lat="42.21411" lon="9.01454">
        <ele>1892</ele>
        <time>2013-06-13T11:05:28Z</time>
      </trkpt>
      <trkpt lat="42.21408" lon="9.01457">
        <ele>1892</ele>
        <time>2013-06-13T11:05:38Z</time>
      </trkpt>
      <trkpt lat="42.21407" lon="9.01459">
        <ele>1892</ele>
        <time>2013-06-13T11:05:58Z</time>
      </trkpt>
      <trkpt lat="42.21411" lon="9.01457">
        <ele>1892</ele>
        <time>2013-06-13T11:06:11Z</time>
      </trkpt>
      <trkpt lat="42.21412" lon="9.01459">
        <ele>1892</ele>
        <time>2013-06-13T11:06:22Z</time>
      </trkpt>
      <trkpt lat="42.21415" lon="9.0146">
        <ele>1890</ele>
        <time>2013-06-13T11:06:36Z</time>
      </trkpt>
      <trkpt lat="42.21415" lon="9.01462">
        <ele>1887</ele>
        <time>2013-06-13T11:06:47Z</time>
      </trkpt>
      <trkpt lat="42.21416" lon="9.01465">
        <ele>1885</ele>
        <time>2013-06-13T11:06:57Z</time>
      </trkpt>
      <trkpt lat="42.21421" lon="9.01468">
        <ele>1884</ele>
        <time>2013-06-13T11:07:06Z</time>
      </trkpt>
      <trkpt lat="42.21425" lon="9.01472">
        <ele>1880</ele>
        <time>2013-06-13T11:07:17Z</time>
      </trkpt>
      <trkpt lat="42.21431" lon="9.01472">
        <ele>1875</ele>
        <time>2013-06-13T11:07:29Z</time>
      </trkpt>
      <trkpt lat="42.21431" lon="9.01477">
        <ele>1873</ele>
        <time>2013-06-13T11:07:38Z</time>
      </trkpt>
      <trkpt lat="42.21431" lon="9.01481">
        <ele>1871</ele>
        <time>2013-06-13T11:07:47Z</time>
      </trkpt>
      <trkpt lat="42.21435" lon="9.01478">
        <ele>1870</ele>
        <time>2013-06-13T11:07:56Z</time>
      </trkpt>
      <trkpt lat="42.21435" lon="9.0148">
        <ele>1869</ele>
        <time>2013-06-13T11:08:05Z</time>
      </trkpt>
      <trkpt lat="42.21433" lon="9.01483">
        <ele>1869</ele>
        <time>2013-06-13T11:08:20Z</time>
      </trkpt>
      <trkpt lat="42.21432" lon="9.01484">
        <ele>1869</ele>
        <time>2013-06-13T11:08:30Z</time>
      </trkpt>
      <trkpt lat="42.21431" lon="9.01485">
        <ele>1869</ele>
        <time>2013-06-13T11:08:47Z</time>
      </trkpt>
      <trkpt lat="42.21431" lon="9.01485">
        <ele>1869</ele>
        <time>2013-06-13T11:08:58Z</time>
      </trkpt>
      <trkpt lat="42.21431" lon="9.01487">
        <ele>1869</ele>
        <time>2013-06-13T11:09:07Z</time>
      </trkpt>
      <trkpt lat="42.21434" lon="9.01486">
        <ele>1870</ele>
        <time>2013-06-13T11:09:17Z</time>
      </trkpt>
      <trkpt lat="42.21435" lon="9.01482">
        <ele>1869</ele>
        <time>2013-06-13T11:09:27Z</time>
      </trkpt>
      <trkpt lat="42.21433" lon="9.01487">
        <ele>1869</ele>
        <time>2013-06-13T11:09:37Z</time>
      </trkpt>
      <trkpt lat="42.21434" lon="9.01487">
        <ele>1871</ele>
        <time>2013-06-13T11:09:51Z</time>
      </trkpt>
      <trkpt lat="42.21433" lon="9.01486">
        <ele>1871</ele>
        <time>2013-06-13T11:10:03Z</time>
      </trkpt>
      <trkpt lat="42.21434" lon="9.01483">
        <ele>1871</ele>
        <time>2013-06-13T11:10:15Z</time>
      </trkpt>
      <trkpt lat="42.21435" lon="9.01485">
        <ele>1871</ele>
        <time>2013-06-13T11:10:33Z</time>
      </trkpt>
      <trkpt lat="42.21424" lon="9.01492">
        <ele>1870</ele>
        <time>2013-06-13T11:12:49Z</time>
      </trkpt>
      <trkpt lat="42.21436" lon="9.01492">
        <ele>1861</ele>
        <time>2013-06-13T11:13:00Z</time>
      </trkpt>
      <trkpt lat="42.21448" lon="9.01491">
        <ele>1862</ele>
        <time>2013-06-13T11:13:09Z</time>
      </trkpt>
      <trkpt lat="42.21446" lon="9.01499">
        <ele>1862</ele>
        <time>2013-06-13T11:13:19Z</time>
      </trkpt>
      <trkpt lat="42.21445" lon="9.01504">
        <ele>1862</ele>
        <time>2013-06-13T11:13:29Z</time>
      </trkpt>
      <trkpt lat="42.21445" lon="9.0151">
        <ele>1862</ele>
        <time>2013-06-13T11:13:38Z</time>
      </trkpt>
      <trkpt lat="42.21445" lon="9.01517">
        <ele>1862</ele>
        <time>2013-06-13T11:13:49Z</time>
      </trkpt>
      <trkpt lat="42.21441" lon="9.01523">
        <ele>1862</ele>
        <time>2013-06-13T11:13:58Z</time>
      </trkpt>
      <trkpt lat="42.21445" lon="9.01527">
        <ele>1860</ele>
        <time>2013-06-13T11:14:07Z</time>
      </trkpt>
      <trkpt lat="42.21442" lon="9.01535">
        <ele>1860</ele>
        <time>2013-06-13T11:14:17Z</time>
      </trkpt>
      <trkpt lat="42.21456" lon="9.01537">
        <ele>1860</ele>
        <time>2013-06-13T11:14:26Z</time>
      </trkpt>
      <trkpt lat="42.21451" lon="9.0155">
        <ele>1856</ele>
        <time>2013-06-13T11:14:37Z</time>
      </trkpt>
      <trkpt lat="42.21454" lon="9.01556">
        <ele>1852</ele>
        <time>2013-06-13T11:14:48Z</time>
      </trkpt>
      <trkpt lat="42.21456" lon="9.01565">
        <ele>1850</ele>
        <time>2013-06-13T11:14:57Z</time>
      </trkpt>
      <trkpt lat="42.2146" lon="9.01569">
        <ele>1848</ele>
        <time>2013-06-13T11:15:08Z</time>
      </trkpt>
      <trkpt lat="42.21458" lon="9.0157">
        <ele>1848</ele>
        <time>2013-06-13T11:15:18Z</time>
      </trkpt>
      <trkpt lat="42.21459" lon="9.01575">
        <ele>1848</ele>
        <time>2013-06-13T11:15:30Z</time>
      </trkpt>
      <trkpt lat="42.21457" lon="9.01572">
        <ele>1850</ele>
        <time>2013-06-13T11:15:40Z</time>
      </trkpt>
      <trkpt lat="42.21458" lon="9.01571">
        <ele>1853</ele>
        <time>2013-06-13T11:15:54Z</time>
      </trkpt>
      <trkpt lat="42.21455" lon="9.01569">
        <ele>1853</ele>
        <time>2013-06-13T11:16:04Z</time>
      </trkpt>
      <trkpt lat="42.21458" lon="9.01577">
        <ele>1853</ele>
        <time>2013-06-13T11:16:13Z</time>
      </trkpt>
      <trkpt lat="42.21457" lon="9.01585">
        <ele>1850</ele>
        <time>2013-06-13T11:16:23Z</time>
      </trkpt>
      <trkpt lat="42.21459" lon="9.01589">
        <ele>1849</ele>
        <time>2013-06-13T11:16:33Z</time>
      </trkpt>
      <trkpt lat="42.21459" lon="9.01592">
        <ele>1849</ele>
        <time>2013-06-13T11:16:42Z</time>
      </trkpt>
      <trkpt lat="42.2146" lon="9.01592">
        <ele>1849</ele>
        <time>2013-06-13T11:16:59Z</time>
      </trkpt>
      <trkpt lat="42.21462" lon="9.01591">
        <ele>1847</ele>
        <time>2013-06-13T11:17:10Z</time>
      </trkpt>
      <trkpt lat="42.21465" lon="9.01595">
        <ele>1846</ele>
        <time>2013-06-13T11:17:22Z</time>
      </trkpt>
      <trkpt lat="42.21463" lon="9.01595">
        <ele>1846</ele>
        <time>2013-06-13T11:17:33Z</time>
      </trkpt>
      <trkpt lat="42.21469" lon="9.01601">
        <ele>1845</ele>
        <time>2013-06-13T11:17:43Z</time>
      </trkpt>
      <trkpt lat="42.21474" lon="9.01603">
        <ele>1844</ele>
        <time>2013-06-13T11:17:52Z</time>
      </trkpt>
      <trkpt lat="42.21479" lon="9.01599">
        <ele>1844</ele>
        <time>2013-06-13T11:18:02Z</time>
      </trkpt>
      <trkpt lat="42.21485" lon="9.01603">
        <ele>1841</ele>
        <time>2013-06-13T11:18:11Z</time>
      </trkpt>
      <trkpt lat="42.21487" lon="9.01607">
        <ele>1841</ele>
        <time>2013-06-13T11:18:24Z</time>
      </trkpt>
      <trkpt lat="42.21489" lon="9.01612">
        <ele>1841</ele>
        <time>2013-06-13T11:18:36Z</time>
      </trkpt>
      <trkpt lat="42.21488" lon="9.01616">
        <ele>1846</ele>
        <time>2013-06-13T11:18:47Z</time>
      </trkpt>
      <trkpt lat="42.21494" lon="9.0162">
        <ele>1846</ele>
        <time>2013-06-13T11:18:56Z</time>
      </trkpt>
      <trkpt lat="42.215" lon="9.01624">
        <ele>1845</ele>
        <time>2013-06-13T11:19:05Z</time>
      </trkpt>
      <trkpt lat="42.215" lon="9.01627">
        <ele>1844</ele>
        <time>2013-06-13T11:19:17Z</time>
      </trkpt>
      <trkpt lat="42.21496" lon="9.01632">
        <ele>1844</ele>
        <time>2013-06-13T11:19:34Z</time>
      </trkpt>
      <trkpt lat="42.21495" lon="9.01631">
        <ele>1844</ele>
        <time>2013-06-13T11:19:44Z</time>
      </trkpt>
      <trkpt lat="42.21492" lon="9.01633">
        <ele>1844</ele>
        <time>2013-06-13T11:19:56Z</time>
      </trkpt>
      <trkpt lat="42.21488" lon="9.01635">
        <ele>1845</ele>
        <time>2013-06-13T11:20:05Z</time>
      </trkpt>
      <trkpt lat="42.21482" lon="9.01637">
        <ele>1845</ele>
        <time>2013-06-13T11:20:16Z</time>
      </trkpt>
      <trkpt lat="42.21484" lon="9.0164">
        <ele>1845</ele>
        <time>2013-06-13T11:20:25Z</time>
      </trkpt>
      <trkpt lat="42.21487" lon="9.01643">
        <ele>1842</ele>
        <time>2013-06-13T11:20:34Z</time>
      </trkpt>
      <trkpt lat="42.21488" lon="9.01648">
        <ele>1839</ele>
        <time>2013-06-13T11:20:45Z</time>
      </trkpt>
      <trkpt lat="42.21489" lon="9.01653">
        <ele>1835</ele>
        <time>2013-06-13T11:20:55Z</time>
      </trkpt>
      <trkpt lat="42.21487" lon="9.01657">
        <ele>1833</ele>
        <time>2013-06-13T11:21:07Z</time>
      </trkpt>
      <trkpt lat="42.21483" lon="9.01661">
        <ele>1833</ele>
        <time>2013-06-13T11:21:16Z</time>
      </trkpt>
      <trkpt lat="42.21481" lon="9.01665">
        <ele>1833</ele>
        <time>2013-06-13T11:21:27Z</time>
      </trkpt>
      <trkpt lat="42.21481" lon="9.01665">
        <ele>1833</ele>
        <time>2013-06-13T11:21:37Z</time>
      </trkpt>
      <trkpt lat="42.21479" lon="9.01669">
        <ele>1833</ele>
        <time>2013-06-13T11:21:48Z</time>
      </trkpt>
      <trkpt lat="42.21479" lon="9.01672">
        <ele>1832</ele>
        <time>2013-06-13T11:22:00Z</time>
      </trkpt>
      <trkpt lat="42.21477" lon="9.01676">
        <ele>1829</ele>
        <time>2013-06-13T11:22:09Z</time>
      </trkpt>
      <trkpt lat="42.21475" lon="9.01682">
        <ele>1826</ele>
        <time>2013-06-13T11:22:22Z</time>
      </trkpt>
      <trkpt lat="42.21472" lon="9.01686">
        <ele>1822</ele>
        <time>2013-06-13T11:22:32Z</time>
      </trkpt>
      <trkpt lat="42.21471" lon="9.01689">
        <ele>1819</ele>
        <time>2013-06-13T11:22:41Z</time>
      </trkpt>
      <trkpt lat="42.21471" lon="9.01692">
        <ele>1817</ele>
        <time>2013-06-13T11:23:04Z</time>
      </trkpt>
      <trkpt lat="42.2147" lon="9.01692">
        <ele>1816</ele>
        <time>2013-06-13T11:23:15Z</time>
      </trkpt>
      <trkpt lat="42.21468" lon="9.01701">
        <ele>1816</ele>
        <time>2013-06-13T11:23:24Z</time>
      </trkpt>
      <trkpt lat="42.21463" lon="9.01712">
        <ele>1814</ele>
        <time>2013-06-13T11:23:36Z</time>
      </trkpt>
      <trkpt lat="42.21465" lon="9.01713">
        <ele>1810</ele>
        <time>2013-06-13T11:23:46Z</time>
      </trkpt>
      <trkpt lat="42.21466" lon="9.01715">
        <ele>1803</ele>
        <time>2013-06-13T11:24:01Z</time>
      </trkpt>
      <trkpt lat="42.21464" lon="9.0172">
        <ele>1802</ele>
        <time>2013-06-13T11:24:10Z</time>
      </trkpt>
      <trkpt lat="42.21464" lon="9.01725">
        <ele>1799</ele>
        <time>2013-06-13T11:24:19Z</time>
      </trkpt>
      <trkpt lat="42.21461" lon="9.01736">
        <ele>1796</ele>
        <time>2013-06-13T11:24:28Z</time>
      </trkpt>
      <trkpt lat="42.21457" lon="9.01746">
        <ele>1796</ele>
        <time>2013-06-13T11:24:52Z</time>
      </trkpt>
      <trkpt lat="42.21454" lon="9.01749">
        <ele>1795</ele>
        <time>2013-06-13T11:25:08Z</time>
      </trkpt>
      <trkpt lat="42.21456" lon="9.01744">
        <ele>1795</ele>
        <time>2013-06-13T11:25:19Z</time>
      </trkpt>
      <trkpt lat="42.21452" lon="9.01746">
        <ele>1795</ele>
        <time>2013-06-13T11:25:30Z</time>
      </trkpt>
      <trkpt lat="42.2145" lon="9.01752">
        <ele>1795</ele>
        <time>2013-06-13T11:25:40Z</time>
      </trkpt>
      <trkpt lat="42.21446" lon="9.01763">
        <ele>1795</ele>
        <time>2013-06-13T11:25:51Z</time>
      </trkpt>
      <trkpt lat="42.21449" lon="9.01773">
        <ele>1796</ele>
        <time>2013-06-13T11:26:01Z</time>
      </trkpt>
      <trkpt lat="42.21452" lon="9.01783">
        <ele>1787</ele>
        <time>2013-06-13T11:26:10Z</time>
      </trkpt>
      <trkpt lat="42.21451" lon="9.01793">
        <ele>1782</ele>
        <time>2013-06-13T11:26:19Z</time>
      </trkpt>
      <trkpt lat="42.2145" lon="9.01805">
        <ele>1779</ele>
        <time>2013-06-13T11:26:29Z</time>
      </trkpt>
      <trkpt lat="42.21449" lon="9.01814">
        <ele>1775</ele>
        <time>2013-06-13T11:26:39Z</time>
      </trkpt>
      <trkpt lat="42.21448" lon="9.01818">
        <ele>1773</ele>
        <time>2013-06-13T11:26:49Z</time>
      </trkpt>
      <trkpt lat="42.21444" lon="9.01822">
        <ele>1771</ele>
        <time>2013-06-13T11:26:58Z</time>
      </trkpt>
      <trkpt lat="42.21442" lon="9.0183">
        <ele>1769</ele>
        <time>2013-06-13T11:27:09Z</time>
      </trkpt>
      <trkpt lat="42.21437" lon="9.01836">
        <ele>1767</ele>
        <time>2013-06-13T11:27:18Z</time>
      </trkpt>
      <trkpt lat="42.21432" lon="9.01844">
        <ele>1767</ele>
        <time>2013-06-13T11:27:27Z</time>
      </trkpt>
      <trkpt lat="42.21436" lon="9.01849">
        <ele>1767</ele>
        <time>2013-06-13T11:27:37Z</time>
      </trkpt>
      <trkpt lat="42.21435" lon="9.01853">
        <ele>1765</ele>
        <time>2013-06-13T11:27:47Z</time>
      </trkpt>
      <trkpt lat="42.21437" lon="9.01857">
        <ele>1765</ele>
        <time>2013-06-13T11:27:56Z</time>
      </trkpt>
      <trkpt lat="42.2144" lon="9.01857">
        <ele>1763</ele>
        <time>2013-06-13T11:28:05Z</time>
      </trkpt>
      <trkpt lat="42.2144" lon="9.01858">
        <ele>1761</ele>
        <time>2013-06-13T11:28:15Z</time>
      </trkpt>
      <trkpt lat="42.21444" lon="9.0186">
        <ele>1760</ele>
        <time>2013-06-13T11:28:25Z</time>
      </trkpt>
      <trkpt lat="42.21445" lon="9.01861">
        <ele>1759</ele>
        <time>2013-06-13T11:28:35Z</time>
      </trkpt>
      <trkpt lat="42.21446" lon="9.01866">
        <ele>1757</ele>
        <time>2013-06-13T11:28:45Z</time>
      </trkpt>
      <trkpt lat="42.21448" lon="9.0187">
        <ele>1756</ele>
        <time>2013-06-13T11:28:56Z</time>
      </trkpt>
      <trkpt lat="42.21445" lon="9.01877">
        <ele>1755</ele>
        <time>2013-06-13T11:29:13Z</time>
      </trkpt>
      <trkpt lat="42.21442" lon="9.0188">
        <ele>1753</ele>
        <time>2013-06-13T11:29:22Z</time>
      </trkpt>
      <trkpt lat="42.21438" lon="9.01888">
        <ele>1752</ele>
        <time>2013-06-13T11:29:32Z</time>
      </trkpt>
      <trkpt lat="42.2144" lon="9.01892">
        <ele>1752</ele>
        <time>2013-06-13T11:29:42Z</time>
      </trkpt>
      <trkpt lat="42.21437" lon="9.01897">
        <ele>1750</ele>
        <time>2013-06-13T11:29:53Z</time>
      </trkpt>
      <trkpt lat="42.21434" lon="9.01902">
        <ele>1749</ele>
        <time>2013-06-13T11:30:02Z</time>
      </trkpt>
      <trkpt lat="42.21434" lon="9.01906">
        <ele>1746</ele>
        <time>2013-06-13T11:30:11Z</time>
      </trkpt>
      <trkpt lat="42.21434" lon="9.01914">
        <ele>1745</ele>
        <time>2013-06-13T11:30:22Z</time>
      </trkpt>
      <trkpt lat="42.21435" lon="9.01924">
        <ele>1744</ele>
        <time>2013-06-13T11:30:31Z</time>
      </trkpt>
      <trkpt lat="42.21431" lon="9.01934">
        <ele>1744</ele>
        <time>2013-06-13T11:30:44Z</time>
      </trkpt>
      <trkpt lat="42.21433" lon="9.01929">
        <ele>1744</ele>
        <time>2013-06-13T11:31:01Z</time>
      </trkpt>
      <trkpt lat="42.21432" lon="9.0193">
        <ele>1744</ele>
        <time>2013-06-13T11:31:46Z</time>
      </trkpt>
      <trkpt lat="42.21438" lon="9.01929">
        <ele>1746</ele>
        <time>2013-06-13T11:31:56Z</time>
      </trkpt>
      <trkpt lat="42.21439" lon="9.01936">
        <ele>1746</ele>
        <time>2013-06-13T11:32:07Z</time>
      </trkpt>
      <trkpt lat="42.21441" lon="9.01941">
        <ele>1744</ele>
        <time>2013-06-13T11:32:16Z</time>
      </trkpt>
      <trkpt lat="42.21442" lon="9.01945">
        <ele>1742</ele>
        <time>2013-06-13T11:32:26Z</time>
      </trkpt>
      <trkpt lat="42.21439" lon="9.0195">
        <ele>1739</ele>
        <time>2013-06-13T11:32:36Z</time>
      </trkpt>
      <trkpt lat="42.21435" lon="9.01953">
        <ele>1737</ele>
        <time>2013-06-13T11:32:46Z</time>
      </trkpt>
      <trkpt lat="42.21433" lon="9.01964">
        <ele>1737</ele>
        <time>2013-06-13T11:32:55Z</time>
      </trkpt>
      <trkpt lat="42.21432" lon="9.01974">
        <ele>1737</ele>
        <time>2013-06-13T11:33:05Z</time>
      </trkpt>
      <trkpt lat="42.21427" lon="9.01981">
        <ele>1736</ele>
        <time>2013-06-13T11:33:15Z</time>
      </trkpt>
      <trkpt lat="42.21428" lon="9.0199">
        <ele>1735</ele>
        <time>2013-06-13T11:33:25Z</time>
      </trkpt>
      <trkpt lat="42.21429" lon="9.01999">
        <ele>1734</ele>
        <time>2013-06-13T11:33:34Z</time>
      </trkpt>
      <trkpt lat="42.21428" lon="9.02006">
        <ele>1734</ele>
        <time>2013-06-13T11:33:45Z</time>
      </trkpt>
      <trkpt lat="42.21425" lon="9.02016">
        <ele>1734</ele>
        <time>2013-06-13T11:33:56Z</time>
      </trkpt>
      <trkpt lat="42.21423" lon="9.02019">
        <ele>1728</ele>
        <time>2013-06-13T11:34:10Z</time>
      </trkpt>
      <trkpt lat="42.21418" lon="9.02024">
        <ele>1728</ele>
        <time>2013-06-13T11:34:20Z</time>
      </trkpt>
      <trkpt lat="42.21415" lon="9.02029">
        <ele>1728</ele>
        <time>2013-06-13T11:34:32Z</time>
      </trkpt>
      <trkpt lat="42.2141" lon="9.02033">
        <ele>1730</ele>
        <time>2013-06-13T11:34:41Z</time>
      </trkpt>
      <trkpt lat="42.21407" lon="9.02037">
        <ele>1732</ele>
        <time>2013-06-13T11:34:51Z</time>
      </trkpt>
      <trkpt lat="42.21405" lon="9.02039">
        <ele>1733</ele>
        <time>2013-06-13T11:35:01Z</time>
      </trkpt>
      <trkpt lat="42.21402" lon="9.02043">
        <ele>1735</ele>
        <time>2013-06-13T11:35:11Z</time>
      </trkpt>
      <trkpt lat="42.21399" lon="9.02049">
        <ele>1735</ele>
        <time>2013-06-13T11:35:21Z</time>
      </trkpt>
      <trkpt lat="42.21393" lon="9.02051">
        <ele>1739</ele>
        <time>2013-06-13T11:35:31Z</time>
      </trkpt>
      <trkpt lat="42.21388" lon="9.02061">
        <ele>1741</ele>
        <time>2013-06-13T11:35:41Z</time>
      </trkpt>
      <trkpt lat="42.21391" lon="9.02072">
        <ele>1741</ele>
        <time>2013-06-13T11:35:50Z</time>
      </trkpt>
      <trkpt lat="42.21392" lon="9.02082">
        <ele>1730</ele>
        <time>2013-06-13T11:35:59Z</time>
      </trkpt>
      <trkpt lat="42.21386" lon="9.02087">
        <ele>1729</ele>
        <time>2013-06-13T11:36:08Z</time>
      </trkpt>
      <trkpt lat="42.21388" lon="9.02096">
        <ele>1727</ele>
        <time>2013-06-13T11:36:18Z</time>
      </trkpt>
      <trkpt lat="42.21387" lon="9.02102">
        <ele>1723</ele>
        <time>2013-06-13T11:36:28Z</time>
      </trkpt>
      <trkpt lat="42.21388" lon="9.02102">
        <ele>1723</ele>
        <time>2013-06-13T11:36:47Z</time>
      </trkpt>
      <trkpt lat="42.21389" lon="9.02102">
        <ele>1723</ele>
        <time>2013-06-13T11:37:01Z</time>
      </trkpt>
      <trkpt lat="42.21387" lon="9.02101">
        <ele>1723</ele>
        <time>2013-06-13T11:37:37Z</time>
      </trkpt>
      <trkpt lat="42.21389" lon="9.021">
        <ele>1719</ele>
        <time>2013-06-13T11:37:56Z</time>
      </trkpt>
      <trkpt lat="42.2139" lon="9.02099">
        <ele>1719</ele>
        <time>2013-06-13T11:38:26Z</time>
      </trkpt>
      <trkpt lat="42.2139" lon="9.02101">
        <ele>1719</ele>
        <time>2013-06-13T11:38:37Z</time>
      </trkpt>
      <trkpt lat="42.21384" lon="9.02101">
        <ele>1723</ele>
        <time>2013-06-13T11:39:03Z</time>
      </trkpt>
      <trkpt lat="42.21389" lon="9.02109">
        <ele>1723</ele>
        <time>2013-06-13T11:39:12Z</time>
      </trkpt>
      <trkpt lat="42.21394" lon="9.02116">
        <ele>1723</ele>
        <time>2013-06-13T11:39:21Z</time>
      </trkpt>
      <trkpt lat="42.214" lon="9.02121">
        <ele>1723</ele>
        <time>2013-06-13T11:39:30Z</time>
      </trkpt>
      <trkpt lat="42.21402" lon="9.02129">
        <ele>1721</ele>
        <time>2013-06-13T11:39:39Z</time>
      </trkpt>
      <trkpt lat="42.21406" lon="9.02137">
        <ele>1720</ele>
        <time>2013-06-13T11:39:48Z</time>
      </trkpt>
      <trkpt lat="42.21409" lon="9.02148">
        <ele>1720</ele>
        <time>2013-06-13T11:39:57Z</time>
      </trkpt>
      <trkpt lat="42.21411" lon="9.02158">
        <ele>1720</ele>
        <time>2013-06-13T11:40:07Z</time>
      </trkpt>
      <trkpt lat="42.21415" lon="9.02168">
        <ele>1720</ele>
        <time>2013-06-13T11:40:16Z</time>
      </trkpt>
      <trkpt lat="42.21415" lon="9.0217">
        <ele>1719</ele>
        <time>2013-06-13T11:40:27Z</time>
      </trkpt>
      <trkpt lat="42.21421" lon="9.02178">
        <ele>1721</ele>
        <time>2013-06-13T11:40:36Z</time>
      </trkpt>
      <trkpt lat="42.21423" lon="9.02184">
        <ele>1721</ele>
        <time>2013-06-13T11:40:46Z</time>
      </trkpt>
      <trkpt lat="42.21429" lon="9.02203">
        <ele>1722</ele>
        <time>2013-06-13T11:41:11Z</time>
      </trkpt>
      <trkpt lat="42.21429" lon="9.02213">
        <ele>1726</ele>
        <time>2013-06-13T11:41:20Z</time>
      </trkpt>
      <trkpt lat="42.21435" lon="9.02226">
        <ele>1724</ele>
        <time>2013-06-13T11:41:29Z</time>
      </trkpt>
      <trkpt lat="42.21439" lon="9.02238">
        <ele>1721</ele>
        <time>2013-06-13T11:41:39Z</time>
      </trkpt>
      <trkpt lat="42.21444" lon="9.02246">
        <ele>1720</ele>
        <time>2013-06-13T11:41:49Z</time>
      </trkpt>
      <trkpt lat="42.21446" lon="9.02252">
        <ele>1720</ele>
        <time>2013-06-13T11:41:58Z</time>
      </trkpt>
      <trkpt lat="42.21447" lon="9.0226">
        <ele>1720</ele>
        <time>2013-06-13T11:42:07Z</time>
      </trkpt>
      <trkpt lat="42.21449" lon="9.0227">
        <ele>1720</ele>
        <time>2013-06-13T11:42:16Z</time>
      </trkpt>
      <trkpt lat="42.21455" lon="9.0228">
        <ele>1720</ele>
        <time>2013-06-13T11:42:26Z</time>
      </trkpt>
      <trkpt lat="42.21458" lon="9.02288">
        <ele>1720</ele>
        <time>2013-06-13T11:42:36Z</time>
      </trkpt>
      <trkpt lat="42.21465" lon="9.02292">
        <ele>1719</ele>
        <time>2013-06-13T11:42:46Z</time>
      </trkpt>
      <trkpt lat="42.21469" lon="9.023">
        <ele>1719</ele>
        <time>2013-06-13T11:42:56Z</time>
      </trkpt>
      <trkpt lat="42.21471" lon="9.0231">
        <ele>1718</ele>
        <time>2013-06-13T11:43:06Z</time>
      </trkpt>
      <trkpt lat="42.21477" lon="9.02319">
        <ele>1718</ele>
        <time>2013-06-13T11:43:16Z</time>
      </trkpt>
      <trkpt lat="42.2148" lon="9.02321">
        <ele>1718</ele>
        <time>2013-06-13T11:43:25Z</time>
      </trkpt>
      <trkpt lat="42.21489" lon="9.02324">
        <ele>1718</ele>
        <time>2013-06-13T11:43:34Z</time>
      </trkpt>
      <trkpt lat="42.21497" lon="9.02325">
        <ele>1718</ele>
        <time>2013-06-13T11:43:43Z</time>
      </trkpt>
      <trkpt lat="42.21504" lon="9.02326">
        <ele>1718</ele>
        <time>2013-06-13T11:43:53Z</time>
      </trkpt>
      <trkpt lat="42.21511" lon="9.02323">
        <ele>1718</ele>
        <time>2013-06-13T11:44:04Z</time>
      </trkpt>
      <trkpt lat="42.21514" lon="9.0232">
        <ele>1717</ele>
        <time>2013-06-13T11:44:14Z</time>
      </trkpt>
      <trkpt lat="42.21519" lon="9.0232">
        <ele>1715</ele>
        <time>2013-06-13T11:44:23Z</time>
      </trkpt>
      <trkpt lat="42.21523" lon="9.02326">
        <ele>1714</ele>
        <time>2013-06-13T11:44:33Z</time>
      </trkpt>
      <trkpt lat="42.21525" lon="9.02325">
        <ele>1711</ele>
        <time>2013-06-13T11:44:43Z</time>
      </trkpt>
      <trkpt lat="42.21527" lon="9.02322">
        <ele>1708</ele>
        <time>2013-06-13T11:44:53Z</time>
      </trkpt>
      <trkpt lat="42.21531" lon="9.02315">
        <ele>1708</ele>
        <time>2013-06-13T11:45:02Z</time>
      </trkpt>
      <trkpt lat="42.21534" lon="9.02315">
        <ele>1707</ele>
        <time>2013-06-13T11:45:14Z</time>
      </trkpt>
      <trkpt lat="42.21538" lon="9.02318">
        <ele>1705</ele>
        <time>2013-06-13T11:45:23Z</time>
      </trkpt>
      <trkpt lat="42.2154" lon="9.02318">
        <ele>1704</ele>
        <time>2013-06-13T11:45:39Z</time>
      </trkpt>
      <trkpt lat="42.21542" lon="9.02318">
        <ele>1702</ele>
        <time>2013-06-13T11:45:49Z</time>
      </trkpt>
      <trkpt lat="42.21545" lon="9.02318">
        <ele>1700</ele>
        <time>2013-06-13T11:45:59Z</time>
      </trkpt>
      <trkpt lat="42.21543" lon="9.02327">
        <ele>1697</ele>
        <time>2013-06-13T11:46:12Z</time>
      </trkpt>
      <trkpt lat="42.21548" lon="9.02327">
        <ele>1695</ele>
        <time>2013-06-13T11:46:22Z</time>
      </trkpt>
      <trkpt lat="42.21548" lon="9.02332">
        <ele>1692</ele>
        <time>2013-06-13T11:46:31Z</time>
      </trkpt>
      <trkpt lat="42.21545" lon="9.02338">
        <ele>1691</ele>
        <time>2013-06-13T11:46:40Z</time>
      </trkpt>
      <trkpt lat="42.21546" lon="9.02344">
        <ele>1690</ele>
        <time>2013-06-13T11:46:50Z</time>
      </trkpt>
      <trkpt lat="42.21548" lon="9.02348">
        <ele>1689</ele>
        <time>2013-06-13T11:47:00Z</time>
      </trkpt>
      <trkpt lat="42.21547" lon="9.02358">
        <ele>1687</ele>
        <time>2013-06-13T11:47:10Z</time>
      </trkpt>
      <trkpt lat="42.21545" lon="9.02368">
        <ele>1682</ele>
        <time>2013-06-13T11:47:19Z</time>
      </trkpt>
      <trkpt lat="42.21545" lon="9.02376">
        <ele>1682</ele>
        <time>2013-06-13T11:47:28Z</time>
      </trkpt>
      <trkpt lat="42.21545" lon="9.02382">
        <ele>1682</ele>
        <time>2013-06-13T11:47:39Z</time>
      </trkpt>
      <trkpt lat="42.21543" lon="9.02388">
        <ele>1681</ele>
        <time>2013-06-13T11:47:51Z</time>
      </trkpt>
      <trkpt lat="42.21542" lon="9.02392">
        <ele>1680</ele>
        <time>2013-06-13T11:48:04Z</time>
      </trkpt>
      <trkpt lat="42.21544" lon="9.0239">
        <ele>1680</ele>
        <time>2013-06-13T11:48:13Z</time>
      </trkpt>
      <trkpt lat="42.21548" lon="9.02392">
        <ele>1680</ele>
        <time>2013-06-13T11:48:23Z</time>
      </trkpt>
      <trkpt lat="42.21547" lon="9.02397">
        <ele>1680</ele>
        <time>2013-06-13T11:48:34Z</time>
      </trkpt>
      <trkpt lat="42.21545" lon="9.02398">
        <ele>1680</ele>
        <time>2013-06-13T11:48:43Z</time>
      </trkpt>
      <trkpt lat="42.2154" lon="9.02399">
        <ele>1675</ele>
        <time>2013-06-13T11:48:54Z</time>
      </trkpt>
      <trkpt lat="42.21542" lon="9.02396">
        <ele>1673</ele>
        <time>2013-06-13T11:49:05Z</time>
      </trkpt>
      <trkpt lat="42.21543" lon="9.02397">
        <ele>1672</ele>
        <time>2013-06-13T11:49:22Z</time>
      </trkpt>
      <trkpt lat="42.21541" lon="9.024">
        <ele>1672</ele>
        <time>2013-06-13T11:49:49Z</time>
      </trkpt>
      <trkpt lat="42.21544" lon="9.024">
        <ele>1672</ele>
        <time>2013-06-13T11:50:05Z</time>
      </trkpt>
      <trkpt lat="42.21544" lon="9.02403">
        <ele>1669</ele>
        <time>2013-06-13T11:50:21Z</time>
      </trkpt>
      <trkpt lat="42.21542" lon="9.024">
        <ele>1670</ele>
        <time>2013-06-13T11:50:35Z</time>
      </trkpt>
      <trkpt lat="42.21546" lon="9.02401">
        <ele>1677</ele>
        <time>2013-06-13T11:50:46Z</time>
      </trkpt>
      <trkpt lat="42.21549" lon="9.02406">
        <ele>1678</ele>
        <time>2013-06-13T11:50:57Z</time>
      </trkpt>
      <trkpt lat="42.21548" lon="9.02405">
        <ele>1675</ele>
        <time>2013-06-13T11:51:11Z</time>
      </trkpt>
      <trkpt lat="42.21544" lon="9.02403">
        <ele>1675</ele>
        <time>2013-06-13T11:51:27Z</time>
      </trkpt>
      <trkpt lat="42.21546" lon="9.02403">
        <ele>1675</ele>
        <time>2013-06-13T11:51:48Z</time>
      </trkpt>
      <trkpt lat="42.21545" lon="9.02405">
        <ele>1675</ele>
        <time>2013-06-13T11:52:00Z</time>
      </trkpt>
      <trkpt lat="42.21543" lon="9.02407">
        <ele>1672</ele>
        <time>2013-06-13T11:52:12Z</time>
      </trkpt>
      <trkpt lat="42.21545" lon="9.02407">
        <ele>1671</ele>
        <time>2013-06-13T11:52:24Z</time>
      </trkpt>
      <trkpt lat="42.21547" lon="9.02407">
        <ele>1671</ele>
        <time>2013-06-13T11:52:34Z</time>
      </trkpt>
      <trkpt lat="42.2155" lon="9.02409">
        <ele>1669</ele>
        <time>2013-06-13T11:52:49Z</time>
      </trkpt>
      <trkpt lat="42.21548" lon="9.02407">
        <ele>1669</ele>
        <time>2013-06-13T11:53:00Z</time>
      </trkpt>
      <trkpt lat="42.2155" lon="9.0241">
        <ele>1668</ele>
        <time>2013-06-13T11:53:09Z</time>
      </trkpt>
      <trkpt lat="42.2155" lon="9.02411">
        <ele>1661</ele>
        <time>2013-06-13T11:53:25Z</time>
      </trkpt>
      <trkpt lat="42.21549" lon="9.02413">
        <ele>1660</ele>
        <time>2013-06-13T11:53:34Z</time>
      </trkpt>
      <trkpt lat="42.21552" lon="9.02413">
        <ele>1660</ele>
        <time>2013-06-13T11:53:44Z</time>
      </trkpt>
      <trkpt lat="42.21556" lon="9.02416">
        <ele>1659</ele>
        <time>2013-06-13T11:53:57Z</time>
      </trkpt>
      <trkpt lat="42.21556" lon="9.02415">
        <ele>1658</ele>
        <time>2013-06-13T11:54:07Z</time>
      </trkpt>
      <trkpt lat="42.21558" lon="9.02412">
        <ele>1658</ele>
        <time>2013-06-13T11:54:18Z</time>
      </trkpt>
      <trkpt lat="42.21559" lon="9.02416">
        <ele>1658</ele>
        <time>2013-06-13T11:54:27Z</time>
      </trkpt>
      <trkpt lat="42.21562" lon="9.02421">
        <ele>1655</ele>
        <time>2013-06-13T11:54:39Z</time>
      </trkpt>
      <trkpt lat="42.21564" lon="9.02417">
        <ele>1655</ele>
        <time>2013-06-13T11:54:49Z</time>
      </trkpt>
      <trkpt lat="42.21566" lon="9.02413">
        <ele>1652</ele>
        <time>2013-06-13T11:55:00Z</time>
      </trkpt>
      <trkpt lat="42.21569" lon="9.02407">
        <ele>1650</ele>
        <time>2013-06-13T11:55:09Z</time>
      </trkpt>
      <trkpt lat="42.21568" lon="9.02402">
        <ele>1649</ele>
        <time>2013-06-13T11:55:19Z</time>
      </trkpt>
      <trkpt lat="42.21566" lon="9.02401">
        <ele>1647</ele>
        <time>2013-06-13T11:55:50Z</time>
      </trkpt>
      <trkpt lat="42.21568" lon="9.02398">
        <ele>1647</ele>
        <time>2013-06-13T11:56:13Z</time>
      </trkpt>
      <trkpt lat="42.21569" lon="9.02399">
        <ele>1647</ele>
        <time>2013-06-13T11:56:24Z</time>
      </trkpt>
      <trkpt lat="42.2157" lon="9.02397">
        <ele>1647</ele>
        <time>2013-06-13T11:56:42Z</time>
      </trkpt>
      <trkpt lat="42.21574" lon="9.02399">
        <ele>1649</ele>
        <time>2013-06-13T11:56:51Z</time>
      </trkpt>
      <trkpt lat="42.21575" lon="9.024">
        <ele>1650</ele>
        <time>2013-06-13T11:57:01Z</time>
      </trkpt>
      <trkpt lat="42.21576" lon="9.02402">
        <ele>1650</ele>
        <time>2013-06-13T11:57:10Z</time>
      </trkpt>
      <trkpt lat="42.21577" lon="9.02407">
        <ele>1650</ele>
        <time>2013-06-13T11:57:21Z</time>
      </trkpt>
      <trkpt lat="42.21578" lon="9.02407">
        <ele>1650</ele>
        <time>2013-06-13T11:57:30Z</time>
      </trkpt>
      <trkpt lat="42.21579" lon="9.02408">
        <ele>1650</ele>
        <time>2013-06-13T11:57:39Z</time>
      </trkpt>
      <trkpt lat="42.21581" lon="9.02421">
        <ele>1646</ele>
        <time>2013-06-13T11:57:49Z</time>
      </trkpt>
      <trkpt lat="42.21584" lon="9.02427">
        <ele>1640</ele>
        <time>2013-06-13T11:58:07Z</time>
      </trkpt>
      <trkpt lat="42.21587" lon="9.0243">
        <ele>1637</ele>
        <time>2013-06-13T11:58:18Z</time>
      </trkpt>
      <trkpt lat="42.2159" lon="9.02433">
        <ele>1635</ele>
        <time>2013-06-13T11:58:27Z</time>
      </trkpt>
      <trkpt lat="42.21592" lon="9.02438">
        <ele>1632</ele>
        <time>2013-06-13T11:58:39Z</time>
      </trkpt>
      <trkpt lat="42.21596" lon="9.02441">
        <ele>1630</ele>
        <time>2013-06-13T11:58:52Z</time>
      </trkpt>
      <trkpt lat="42.21598" lon="9.02449">
        <ele>1626</ele>
        <time>2013-06-13T11:59:01Z</time>
      </trkpt>
      <trkpt lat="42.21597" lon="9.02453">
        <ele>1624</ele>
        <time>2013-06-13T11:59:10Z</time>
      </trkpt>
      <trkpt lat="42.21601" lon="9.02457">
        <ele>1622</ele>
        <time>2013-06-13T11:59:19Z</time>
      </trkpt>
      <trkpt lat="42.21607" lon="9.02459">
        <ele>1619</ele>
        <time>2013-06-13T11:59:28Z</time>
      </trkpt>
      <trkpt lat="42.21612" lon="9.02458">
        <ele>1617</ele>
        <time>2013-06-13T11:59:37Z</time>
      </trkpt>
      <trkpt lat="42.21617" lon="9.02456">
        <ele>1615</ele>
        <time>2013-06-13T11:59:47Z</time>
      </trkpt>
      <trkpt lat="42.21624" lon="9.02458">
        <ele>1614</ele>
        <time>2013-06-13T11:59:57Z</time>
      </trkpt>
      <trkpt lat="42.21633" lon="9.02448">
        <ele>1613</ele>
        <time>2013-06-13T12:00:08Z</time>
      </trkpt>
      <trkpt lat="42.21642" lon="9.02442">
        <ele>1611</ele>
        <time>2013-06-13T12:00:19Z</time>
      </trkpt>
      <trkpt lat="42.21643" lon="9.02441">
        <ele>1608</ele>
        <time>2013-06-13T12:00:29Z</time>
      </trkpt>
      <trkpt lat="42.21645" lon="9.02439">
        <ele>1604</ele>
        <time>2013-06-13T12:00:41Z</time>
      </trkpt>
      <trkpt lat="42.21648" lon="9.02435">
        <ele>1604</ele>
        <time>2013-06-13T12:00:51Z</time>
      </trkpt>
      <trkpt lat="42.21656" lon="9.02435">
        <ele>1604</ele>
        <time>2013-06-13T12:01:01Z</time>
      </trkpt>
      <trkpt lat="42.2166" lon="9.02435">
        <ele>1602</ele>
        <time>2013-06-13T12:01:12Z</time>
      </trkpt>
      <trkpt lat="42.21663" lon="9.02435">
        <ele>1599</ele>
        <time>2013-06-13T12:01:23Z</time>
      </trkpt>
      <trkpt lat="42.21666" lon="9.0243">
        <ele>1595</ele>
        <time>2013-06-13T12:01:33Z</time>
      </trkpt>
      <trkpt lat="42.21672" lon="9.02429">
        <ele>1591</ele>
        <time>2013-06-13T12:01:45Z</time>
      </trkpt>
      <trkpt lat="42.21678" lon="9.02429">
        <ele>1590</ele>
        <time>2013-06-13T12:01:56Z</time>
      </trkpt>
      <trkpt lat="42.21682" lon="9.02423">
        <ele>1588</ele>
        <time>2013-06-13T12:02:06Z</time>
      </trkpt>
      <trkpt lat="42.21688" lon="9.02414">
        <ele>1585</ele>
        <time>2013-06-13T12:02:17Z</time>
      </trkpt>
      <trkpt lat="42.21695" lon="9.02407">
        <ele>1585</ele>
        <time>2013-06-13T12:02:27Z</time>
      </trkpt>
      <trkpt lat="42.21698" lon="9.02405">
        <ele>1585</ele>
        <time>2013-06-13T12:02:38Z</time>
      </trkpt>
      <trkpt lat="42.21701" lon="9.02403">
        <ele>1584</ele>
        <time>2013-06-13T12:02:48Z</time>
      </trkpt>
      <trkpt lat="42.21706" lon="9.024">
        <ele>1583</ele>
        <time>2013-06-13T12:02:59Z</time>
      </trkpt>
      <trkpt lat="42.21712" lon="9.02396">
        <ele>1581</ele>
        <time>2013-06-13T12:03:08Z</time>
      </trkpt>
      <trkpt lat="42.21718" lon="9.02394">
        <ele>1581</ele>
        <time>2013-06-13T12:03:18Z</time>
      </trkpt>
      <trkpt lat="42.21724" lon="9.02392">
        <ele>1577</ele>
        <time>2013-06-13T12:03:31Z</time>
      </trkpt>
      <trkpt lat="42.21728" lon="9.02393">
        <ele>1575</ele>
        <time>2013-06-13T12:03:41Z</time>
      </trkpt>
      <trkpt lat="42.21733" lon="9.0239">
        <ele>1574</ele>
        <time>2013-06-13T12:03:50Z</time>
      </trkpt>
      <trkpt lat="42.21738" lon="9.02387">
        <ele>1573</ele>
        <time>2013-06-13T12:04:00Z</time>
      </trkpt>
      <trkpt lat="42.21748" lon="9.02383">
        <ele>1572</ele>
        <time>2013-06-13T12:04:10Z</time>
      </trkpt>
      <trkpt lat="42.21756" lon="9.02381">
        <ele>1572</ele>
        <time>2013-06-13T12:04:19Z</time>
      </trkpt>
      <trkpt lat="42.21767" lon="9.02381">
        <ele>1570</ele>
        <time>2013-06-13T12:04:30Z</time>
      </trkpt>
      <trkpt lat="42.21767" lon="9.0238">
        <ele>1569</ele>
        <time>2013-06-13T12:04:48Z</time>
      </trkpt>
      <trkpt lat="42.21772" lon="9.02382">
        <ele>1569</ele>
        <time>2013-06-13T12:05:00Z</time>
      </trkpt>
      <trkpt lat="42.21781" lon="9.02376">
        <ele>1569</ele>
        <time>2013-06-13T12:05:10Z</time>
      </trkpt>
      <trkpt lat="42.21778" lon="9.0237">
        <ele>1569</ele>
        <time>2013-06-13T12:05:20Z</time>
      </trkpt>
      <trkpt lat="42.21783" lon="9.02382">
        <ele>1570</ele>
        <time>2013-06-13T12:05:32Z</time>
      </trkpt>
      <trkpt lat="42.21783" lon="9.02384">
        <ele>1571</ele>
        <time>2013-06-13T12:05:44Z</time>
      </trkpt>
      <trkpt lat="42.2178" lon="9.02385">
        <ele>1568</ele>
        <time>2013-06-13T12:05:56Z</time>
      </trkpt>
      <trkpt lat="42.21782" lon="9.02384">
        <ele>1568</ele>
        <time>2013-06-13T12:06:05Z</time>
      </trkpt>
      <trkpt lat="42.21788" lon="9.02384">
        <ele>1568</ele>
        <time>2013-06-13T12:06:14Z</time>
      </trkpt>
      <trkpt lat="42.21795" lon="9.02378">
        <ele>1568</ele>
        <time>2013-06-13T12:06:24Z</time>
      </trkpt>
      <trkpt lat="42.21799" lon="9.02379">
        <ele>1568</ele>
        <time>2013-06-13T12:06:33Z</time>
      </trkpt>
      <trkpt lat="42.21803" lon="9.02381">
        <ele>1564</ele>
        <time>2013-06-13T12:06:43Z</time>
      </trkpt>
      <trkpt lat="42.21807" lon="9.02378">
        <ele>1563</ele>
        <time>2013-06-13T12:06:53Z</time>
      </trkpt>
      <trkpt lat="42.21814" lon="9.02376">
        <ele>1561</ele>
        <time>2013-06-13T12:07:03Z</time>
      </trkpt>
      <trkpt lat="42.21817" lon="9.02377">
        <ele>1561</ele>
        <time>2013-06-13T12:07:14Z</time>
      </trkpt>
      <trkpt lat="42.21823" lon="9.02372">
        <ele>1556</ele>
        <time>2013-06-13T12:07:24Z</time>
      </trkpt>
      <trkpt lat="42.21831" lon="9.02366">
        <ele>1556</ele>
        <time>2013-06-13T12:07:33Z</time>
      </trkpt>
      <trkpt lat="42.21842" lon="9.02359">
        <ele>1556</ele>
        <time>2013-06-13T12:07:43Z</time>
      </trkpt>
      <trkpt lat="42.21854" lon="9.0236">
        <ele>1556</ele>
        <time>2013-06-13T12:07:53Z</time>
      </trkpt>
      <trkpt lat="42.21863" lon="9.02357">
        <ele>1555</ele>
        <time>2013-06-13T12:08:03Z</time>
      </trkpt>
      <trkpt lat="42.21871" lon="9.02356">
        <ele>1555</ele>
        <time>2013-06-13T12:08:12Z</time>
      </trkpt>
      <trkpt lat="42.21879" lon="9.0236">
        <ele>1553</ele>
        <time>2013-06-13T12:08:22Z</time>
      </trkpt>
      <trkpt lat="42.21889" lon="9.02359">
        <ele>1552</ele>
        <time>2013-06-13T12:08:31Z</time>
      </trkpt>
      <trkpt lat="42.21898" lon="9.02359">
        <ele>1552</ele>
        <time>2013-06-13T12:08:41Z</time>
      </trkpt>
      <trkpt lat="42.21904" lon="9.0236">
        <ele>1547</ele>
        <time>2013-06-13T12:08:51Z</time>
      </trkpt>
      <trkpt lat="42.21909" lon="9.02361">
        <ele>1543</ele>
        <time>2013-06-13T12:09:07Z</time>
      </trkpt>
      <trkpt lat="42.2192" lon="9.02357">
        <ele>1542</ele>
        <time>2013-06-13T12:09:18Z</time>
      </trkpt>
      <trkpt lat="42.21933" lon="9.02345">
        <ele>1542</ele>
        <time>2013-06-13T12:09:29Z</time>
      </trkpt>
      <trkpt lat="42.21943" lon="9.02337">
        <ele>1542</ele>
        <time>2013-06-13T12:09:39Z</time>
      </trkpt>
      <trkpt lat="42.21952" lon="9.02334">
        <ele>1543</ele>
        <time>2013-06-13T12:09:49Z</time>
      </trkpt>
      <trkpt lat="42.21959" lon="9.02336">
        <ele>1543</ele>
        <time>2013-06-13T12:09:59Z</time>
      </trkpt>
      <trkpt lat="42.21965" lon="9.02343">
        <ele>1543</ele>
        <time>2013-06-13T12:10:08Z</time>
      </trkpt>
      <trkpt lat="42.21973" lon="9.02345">
        <ele>1543</ele>
        <time>2013-06-13T12:10:17Z</time>
      </trkpt>
      <trkpt lat="42.2198" lon="9.02344">
        <ele>1543</ele>
        <time>2013-06-13T12:10:26Z</time>
      </trkpt>
      <trkpt lat="42.21989" lon="9.02344">
        <ele>1543</ele>
        <time>2013-06-13T12:10:36Z</time>
      </trkpt>
      <trkpt lat="42.21998" lon="9.02347">
        <ele>1543</ele>
        <time>2013-06-13T12:10:45Z</time>
      </trkpt>
      <trkpt lat="42.22007" lon="9.02352">
        <ele>1543</ele>
        <time>2013-06-13T12:10:55Z</time>
      </trkpt>
      <trkpt lat="42.22018" lon="9.0235">
        <ele>1543</ele>
        <time>2013-06-13T12:11:05Z</time>
      </trkpt>
      <trkpt lat="42.22026" lon="9.02349">
        <ele>1543</ele>
        <time>2013-06-13T12:11:14Z</time>
      </trkpt>
      <trkpt lat="42.22034" lon="9.0235">
        <ele>1542</ele>
        <time>2013-06-13T12:11:23Z</time>
      </trkpt>
      <trkpt lat="42.22044" lon="9.0235">
        <ele>1542</ele>
        <time>2013-06-13T12:11:34Z</time>
      </trkpt>
      <trkpt lat="42.22053" lon="9.02352">
        <ele>1541</ele>
        <time>2013-06-13T12:11:44Z</time>
      </trkpt>
      <trkpt lat="42.22057" lon="9.02351">
        <ele>1541</ele>
        <time>2013-06-13T12:11:54Z</time>
      </trkpt>
      <trkpt lat="42.22066" lon="9.02346">
        <ele>1541</ele>
        <time>2013-06-13T12:12:03Z</time>
      </trkpt>
      <trkpt lat="42.22074" lon="9.02349">
        <ele>1540</ele>
        <time>2013-06-13T12:12:12Z</time>
      </trkpt>
      <trkpt lat="42.22083" lon="9.02354">
        <ele>1538</ele>
        <time>2013-06-13T12:12:22Z</time>
      </trkpt>
      <trkpt lat="42.22092" lon="9.02349">
        <ele>1538</ele>
        <time>2013-06-13T12:12:32Z</time>
      </trkpt>
      <trkpt lat="42.221" lon="9.0235">
        <ele>1537</ele>
        <time>2013-06-13T12:12:42Z</time>
      </trkpt>
      <trkpt lat="42.22108" lon="9.02352">
        <ele>1536</ele>
        <time>2013-06-13T12:12:53Z</time>
      </trkpt>
      <trkpt lat="42.22116" lon="9.02352">
        <ele>1533</ele>
        <time>2013-06-13T12:13:05Z</time>
      </trkpt>
      <trkpt lat="42.22123" lon="9.02355">
        <ele>1533</ele>
        <time>2013-06-13T12:13:15Z</time>
      </trkpt>
      <trkpt lat="42.22127" lon="9.02367">
        <ele>1531</ele>
        <time>2013-06-13T12:13:24Z</time>
      </trkpt>
      <trkpt lat="42.22131" lon="9.02379">
        <ele>1528</ele>
        <time>2013-06-13T12:13:34Z</time>
      </trkpt>
      <trkpt lat="42.22138" lon="9.02389">
        <ele>1525</ele>
        <time>2013-06-13T12:13:45Z</time>
      </trkpt>
      <trkpt lat="42.22147" lon="9.02388">
        <ele>1523</ele>
        <time>2013-06-13T12:13:54Z</time>
      </trkpt>
      <trkpt lat="42.22154" lon="9.02381">
        <ele>1521</ele>
        <time>2013-06-13T12:14:04Z</time>
      </trkpt>
      <trkpt lat="42.2216" lon="9.0238">
        <ele>1520</ele>
        <time>2013-06-13T12:14:14Z</time>
      </trkpt>
      <trkpt lat="42.22166" lon="9.02376">
        <ele>1517</ele>
        <time>2013-06-13T12:14:23Z</time>
      </trkpt>
      <trkpt lat="42.22175" lon="9.02367">
        <ele>1517</ele>
        <time>2013-06-13T12:14:33Z</time>
      </trkpt>
      <trkpt lat="42.22183" lon="9.0236">
        <ele>1517</ele>
        <time>2013-06-13T12:14:42Z</time>
      </trkpt>
      <trkpt lat="42.22191" lon="9.02353">
        <ele>1517</ele>
        <time>2013-06-13T12:14:53Z</time>
      </trkpt>
      <trkpt lat="42.222" lon="9.02361">
        <ele>1515</ele>
        <time>2013-06-13T12:15:03Z</time>
      </trkpt>
      <trkpt lat="42.22207" lon="9.02372">
        <ele>1513</ele>
        <time>2013-06-13T12:15:13Z</time>
      </trkpt>
      <trkpt lat="42.22216" lon="9.02377">
        <ele>1513</ele>
        <time>2013-06-13T12:15:22Z</time>
      </trkpt>
      <trkpt lat="42.2223" lon="9.02381">
        <ele>1512</ele>
        <time>2013-06-13T12:15:32Z</time>
      </trkpt>
      <trkpt lat="42.2224" lon="9.02381">
        <ele>1512</ele>
        <time>2013-06-13T12:15:41Z</time>
      </trkpt>
      <trkpt lat="42.22249" lon="9.02381">
        <ele>1512</ele>
        <time>2013-06-13T12:15:50Z</time>
      </trkpt>
      <trkpt lat="42.2226" lon="9.02378">
        <ele>1512</ele>
        <time>2013-06-13T12:15:59Z</time>
      </trkpt>
      <trkpt lat="42.22266" lon="9.0238">
        <ele>1509</ele>
        <time>2013-06-13T12:16:10Z</time>
      </trkpt>
      <trkpt lat="42.22277" lon="9.02386">
        <ele>1509</ele>
        <time>2013-06-13T12:16:19Z</time>
      </trkpt>
      <trkpt lat="42.22289" lon="9.02382">
        <ele>1508</ele>
        <time>2013-06-13T12:16:29Z</time>
      </trkpt>
      <trkpt lat="42.22298" lon="9.02376">
        <ele>1508</ele>
        <time>2013-06-13T12:16:38Z</time>
      </trkpt>
      <trkpt lat="42.22303" lon="9.02376">
        <ele>1507</ele>
        <time>2013-06-13T12:16:48Z</time>
      </trkpt>
      <trkpt lat="42.22311" lon="9.02376">
        <ele>1504</ele>
        <time>2013-06-13T12:16:59Z</time>
      </trkpt>
      <trkpt lat="42.22317" lon="9.02376">
        <ele>1503</ele>
        <time>2013-06-13T12:17:08Z</time>
      </trkpt>
      <trkpt lat="42.22325" lon="9.02376">
        <ele>1501</ele>
        <time>2013-06-13T12:17:17Z</time>
      </trkpt>
      <trkpt lat="42.22332" lon="9.02374">
        <ele>1499</ele>
        <time>2013-06-13T12:17:27Z</time>
      </trkpt>
      <trkpt lat="42.22335" lon="9.02381">
        <ele>1497</ele>
        <time>2013-06-13T12:17:38Z</time>
      </trkpt>
      <trkpt lat="42.2234" lon="9.02381">
        <ele>1496</ele>
        <time>2013-06-13T12:17:49Z</time>
      </trkpt>
      <trkpt lat="42.22344" lon="9.02386">
        <ele>1496</ele>
        <time>2013-06-13T12:17:58Z</time>
      </trkpt>
      <trkpt lat="42.2235" lon="9.02387">
        <ele>1496</ele>
        <time>2013-06-13T12:18:07Z</time>
      </trkpt>
      <trkpt lat="42.22354" lon="9.02394">
        <ele>1496</ele>
        <time>2013-06-13T12:18:16Z</time>
      </trkpt>
      <trkpt lat="42.22356" lon="9.02392">
        <ele>1496</ele>
        <time>2013-06-13T12:18:27Z</time>
      </trkpt>
      <trkpt lat="42.2236" lon="9.02385">
        <ele>1496</ele>
        <time>2013-06-13T12:18:37Z</time>
      </trkpt>
      <trkpt lat="42.22365" lon="9.02378">
        <ele>1495</ele>
        <time>2013-06-13T12:18:47Z</time>
      </trkpt>
      <trkpt lat="42.2237" lon="9.02377">
        <ele>1495</ele>
        <time>2013-06-13T12:18:58Z</time>
      </trkpt>
      <trkpt lat="42.22375" lon="9.02381">
        <ele>1493</ele>
        <time>2013-06-13T12:19:08Z</time>
      </trkpt>
      <trkpt lat="42.22374" lon="9.02382">
        <ele>1490</ele>
        <time>2013-06-13T12:19:26Z</time>
      </trkpt>
      <trkpt lat="42.22373" lon="9.02381">
        <ele>1490</ele>
        <time>2013-06-13T12:19:37Z</time>
      </trkpt>
      <trkpt lat="42.22377" lon="9.0238">
        <ele>1491</ele>
        <time>2013-06-13T12:19:48Z</time>
      </trkpt>
      <trkpt lat="42.22388" lon="9.02383">
        <ele>1491</ele>
        <time>2013-06-13T12:19:58Z</time>
      </trkpt>
      <trkpt lat="42.22397" lon="9.02388">
        <ele>1491</ele>
        <time>2013-06-13T12:20:08Z</time>
      </trkpt>
      <trkpt lat="42.22403" lon="9.02387">
        <ele>1491</ele>
        <time>2013-06-13T12:20:17Z</time>
      </trkpt>
      <trkpt lat="42.22399" lon="9.02393">
        <ele>1491</ele>
        <time>2013-06-13T12:20:26Z</time>
      </trkpt>
      <trkpt lat="42.22398" lon="9.02401">
        <ele>1491</ele>
        <time>2013-06-13T12:20:37Z</time>
      </trkpt>
      <trkpt lat="42.22399" lon="9.02406">
        <ele>1491</ele>
        <time>2013-06-13T12:20:46Z</time>
      </trkpt>
      <trkpt lat="42.224" lon="9.02411">
        <ele>1489</ele>
        <time>2013-06-13T12:20:57Z</time>
      </trkpt>
      <trkpt lat="42.22405" lon="9.02416">
        <ele>1486</ele>
        <time>2013-06-13T12:21:06Z</time>
      </trkpt>
      <trkpt lat="42.22408" lon="9.02423">
        <ele>1485</ele>
        <time>2013-06-13T12:21:18Z</time>
      </trkpt>
      <trkpt lat="42.22412" lon="9.02423">
        <ele>1482</ele>
        <time>2013-06-13T12:21:30Z</time>
      </trkpt>
      <trkpt lat="42.22416" lon="9.02421">
        <ele>1482</ele>
        <time>2013-06-13T12:21:44Z</time>
      </trkpt>
      <trkpt lat="42.2242" lon="9.02422">
        <ele>1481</ele>
        <time>2013-06-13T12:21:54Z</time>
      </trkpt>
      <trkpt lat="42.22422" lon="9.02424">
        <ele>1480</ele>
        <time>2013-06-13T12:22:05Z</time>
      </trkpt>
      <trkpt lat="42.22428" lon="9.02429">
        <ele>1479</ele>
        <time>2013-06-13T12:22:15Z</time>
      </trkpt>
      <trkpt lat="42.22431" lon="9.02434">
        <ele>1478</ele>
        <time>2013-06-13T12:22:24Z</time>
      </trkpt>
      <trkpt lat="42.22438" lon="9.02439">
        <ele>1477</ele>
        <time>2013-06-13T12:22:34Z</time>
      </trkpt>
      <trkpt lat="42.22441" lon="9.02442">
        <ele>1474</ele>
        <time>2013-06-13T12:22:43Z</time>
      </trkpt>
      <trkpt lat="42.22448" lon="9.02448">
        <ele>1472</ele>
        <time>2013-06-13T12:22:54Z</time>
      </trkpt>
      <trkpt lat="42.22454" lon="9.02454">
        <ele>1469</ele>
        <time>2013-06-13T12:23:04Z</time>
      </trkpt>
      <trkpt lat="42.22461" lon="9.02457">
        <ele>1468</ele>
        <time>2013-06-13T12:23:16Z</time>
      </trkpt>
      <trkpt lat="42.22462" lon="9.02463">
        <ele>1467</ele>
        <time>2013-06-13T12:23:25Z</time>
      </trkpt>
      <trkpt lat="42.22466" lon="9.02466">
        <ele>1466</ele>
        <time>2013-06-13T12:23:35Z</time>
      </trkpt>
      <trkpt lat="42.22475" lon="9.02469">
        <ele>1464</ele>
        <time>2013-06-13T12:23:44Z</time>
      </trkpt>
      <trkpt lat="42.22476" lon="9.02475">
        <ele>1461</ele>
        <time>2013-06-13T12:23:55Z</time>
      </trkpt>
      <trkpt lat="42.22476" lon="9.02477">
        <ele>1461</ele>
        <time>2013-06-13T12:24:09Z</time>
      </trkpt>
      <trkpt lat="42.22486" lon="9.02479">
        <ele>1460</ele>
        <time>2013-06-13T12:24:19Z</time>
      </trkpt>
      <trkpt lat="42.22492" lon="9.02481">
        <ele>1460</ele>
        <time>2013-06-13T12:24:28Z</time>
      </trkpt>
      <trkpt lat="42.22498" lon="9.02486">
        <ele>1460</ele>
        <time>2013-06-13T12:24:37Z</time>
      </trkpt>
      <trkpt lat="42.22504" lon="9.02493">
        <ele>1458</ele>
        <time>2013-06-13T12:24:48Z</time>
      </trkpt>
      <trkpt lat="42.22508" lon="9.02496">
        <ele>1455</ele>
        <time>2013-06-13T12:24:58Z</time>
      </trkpt>
      <trkpt lat="42.22516" lon="9.02503">
        <ele>1453</ele>
        <time>2013-06-13T12:25:09Z</time>
      </trkpt>
      <trkpt lat="42.22527" lon="9.0251">
        <ele>1453</ele>
        <time>2013-06-13T12:25:20Z</time>
      </trkpt>
      <trkpt lat="42.22536" lon="9.02513">
        <ele>1453</ele>
        <time>2013-06-13T12:25:29Z</time>
      </trkpt>
      <trkpt lat="42.22542" lon="9.02519">
        <ele>1452</ele>
        <time>2013-06-13T12:25:39Z</time>
      </trkpt>
      <trkpt lat="42.2255" lon="9.02524">
        <ele>1451</ele>
        <time>2013-06-13T12:25:48Z</time>
      </trkpt>
      <trkpt lat="42.22557" lon="9.02529">
        <ele>1450</ele>
        <time>2013-06-13T12:25:57Z</time>
      </trkpt>
      <trkpt lat="42.22565" lon="9.0253">
        <ele>1450</ele>
        <time>2013-06-13T12:26:08Z</time>
      </trkpt>
      <trkpt lat="42.22565" lon="9.02532">
        <ele>1450</ele>
        <time>2013-06-13T12:26:22Z</time>
      </trkpt>
      <trkpt lat="42.22567" lon="9.02534">
        <ele>1450</ele>
        <time>2013-06-13T12:26:37Z</time>
      </trkpt>
      <trkpt lat="42.22572" lon="9.02534">
        <ele>1449</ele>
        <time>2013-06-13T12:26:49Z</time>
      </trkpt>
      <trkpt lat="42.22575" lon="9.02544">
        <ele>1449</ele>
        <time>2013-06-13T12:26:59Z</time>
      </trkpt>
      <trkpt lat="42.22574" lon="9.02553">
        <ele>1448</ele>
        <time>2013-06-13T12:27:09Z</time>
      </trkpt>
      <trkpt lat="42.22578" lon="9.0256">
        <ele>1447</ele>
        <time>2013-06-13T12:27:18Z</time>
      </trkpt>
      <trkpt lat="42.22585" lon="9.02568">
        <ele>1445</ele>
        <time>2013-06-13T12:27:27Z</time>
      </trkpt>
      <trkpt lat="42.22594" lon="9.0257">
        <ele>1444</ele>
        <time>2013-06-13T12:27:37Z</time>
      </trkpt>
      <trkpt lat="42.22601" lon="9.02569">
        <ele>1444</ele>
        <time>2013-06-13T12:27:48Z</time>
      </trkpt>
      <trkpt lat="42.22606" lon="9.02572">
        <ele>1443</ele>
        <time>2013-06-13T12:27:57Z</time>
      </trkpt>
      <trkpt lat="42.22606" lon="9.02577">
        <ele>1441</ele>
        <time>2013-06-13T12:28:06Z</time>
      </trkpt>
      <trkpt lat="42.22608" lon="9.02581">
        <ele>1440</ele>
        <time>2013-06-13T12:28:15Z</time>
      </trkpt>
      <trkpt lat="42.22611" lon="9.02588">
        <ele>1437</ele>
        <time>2013-06-13T12:28:26Z</time>
      </trkpt>
      <trkpt lat="42.22612" lon="9.02594">
        <ele>1436</ele>
        <time>2013-06-13T12:28:35Z</time>
      </trkpt>
      <trkpt lat="42.2262" lon="9.02598">
        <ele>1435</ele>
        <time>2013-06-13T12:28:44Z</time>
      </trkpt>
      <trkpt lat="42.22628" lon="9.02603">
        <ele>1433</ele>
        <time>2013-06-13T12:28:54Z</time>
      </trkpt>
      <trkpt lat="42.22637" lon="9.02607">
        <ele>1433</ele>
        <time>2013-06-13T12:29:04Z</time>
      </trkpt>
      <trkpt lat="42.22642" lon="9.02612">
        <ele>1432</ele>
        <time>2013-06-13T12:29:13Z</time>
      </trkpt>
      <trkpt lat="42.22647" lon="9.02611">
        <ele>1432</ele>
        <time>2013-06-13T12:29:22Z</time>
      </trkpt>
      <trkpt lat="42.22652" lon="9.02616">
        <ele>1430</ele>
        <time>2013-06-13T12:29:33Z</time>
      </trkpt>
      <trkpt lat="42.22656" lon="9.0262">
        <ele>1427</ele>
        <time>2013-06-13T12:29:42Z</time>
      </trkpt>
      <trkpt lat="42.22662" lon="9.02626">
        <ele>1426</ele>
        <time>2013-06-13T12:29:53Z</time>
      </trkpt>
      <trkpt lat="42.22668" lon="9.02632">
        <ele>1424</ele>
        <time>2013-06-13T12:30:04Z</time>
      </trkpt>
      <trkpt lat="42.22672" lon="9.02642">
        <ele>1423</ele>
        <time>2013-06-13T12:30:14Z</time>
      </trkpt>
      <trkpt lat="42.22677" lon="9.0265">
        <ele>1422</ele>
        <time>2013-06-13T12:30:24Z</time>
      </trkpt>
      <trkpt lat="42.2268" lon="9.02658">
        <ele>1422</ele>
        <time>2013-06-13T12:30:35Z</time>
      </trkpt>
      <trkpt lat="42.22683" lon="9.02662">
        <ele>1421</ele>
        <time>2013-06-13T12:30:48Z</time>
      </trkpt>
      <trkpt lat="42.22688" lon="9.02667">
        <ele>1418</ele>
        <time>2013-06-13T12:30:58Z</time>
      </trkpt>
      <trkpt lat="42.22693" lon="9.0267">
        <ele>1415</ele>
        <time>2013-06-13T12:31:11Z</time>
      </trkpt>
      <trkpt lat="42.22696" lon="9.02672">
        <ele>1414</ele>
        <time>2013-06-13T12:31:21Z</time>
      </trkpt>
      <trkpt lat="42.227" lon="9.02671">
        <ele>1411</ele>
        <time>2013-06-13T12:31:32Z</time>
      </trkpt>
      <trkpt lat="42.22706" lon="9.02674">
        <ele>1411</ele>
        <time>2013-06-13T12:31:44Z</time>
      </trkpt>
      <trkpt lat="42.22704" lon="9.02684">
        <ele>1411</ele>
        <time>2013-06-13T12:31:54Z</time>
      </trkpt>
      <trkpt lat="42.22705" lon="9.02689">
        <ele>1411</ele>
        <time>2013-06-13T12:32:03Z</time>
      </trkpt>
      <trkpt lat="42.22704" lon="9.02693">
        <ele>1411</ele>
        <time>2013-06-13T12:32:18Z</time>
      </trkpt>
      <trkpt lat="42.22705" lon="9.02697">
        <ele>1411</ele>
        <time>2013-06-13T12:32:34Z</time>
      </trkpt>
      <trkpt lat="42.22706" lon="9.027">
        <ele>1411</ele>
        <time>2013-06-13T12:32:43Z</time>
      </trkpt>
      <trkpt lat="42.22706" lon="9.02699">
        <ele>1411</ele>
        <time>2013-06-13T12:32:59Z</time>
      </trkpt>
      <trkpt lat="42.22707" lon="9.02704">
        <ele>1411</ele>
        <time>2013-06-13T12:33:08Z</time>
      </trkpt>
      <trkpt lat="42.22713" lon="9.02713">
        <ele>1410</ele>
        <time>2013-06-13T12:33:18Z</time>
      </trkpt>
      <trkpt lat="42.22723" lon="9.02715">
        <ele>1410</ele>
        <time>2013-06-13T12:33:27Z</time>
      </trkpt>
      <trkpt lat="42.22731" lon="9.02719">
        <ele>1410</ele>
        <time>2013-06-13T12:33:37Z</time>
      </trkpt>
      <trkpt lat="42.22741" lon="9.0272">
        <ele>1410</ele>
        <time>2013-06-13T12:33:49Z</time>
      </trkpt>
      <trkpt lat="42.22748" lon="9.02725">
        <ele>1410</ele>
        <time>2013-06-13T12:33:59Z</time>
      </trkpt>
      <trkpt lat="42.22753" lon="9.02734">
        <ele>1410</ele>
        <time>2013-06-13T12:34:10Z</time>
      </trkpt>
      <trkpt lat="42.22756" lon="9.02743">
        <ele>1410</ele>
        <time>2013-06-13T12:34:20Z</time>
      </trkpt>
      <trkpt lat="42.2276" lon="9.02754">
        <ele>1410</ele>
        <time>2013-06-13T12:34:30Z</time>
      </trkpt>
      <trkpt lat="42.22764" lon="9.02765">
        <ele>1409</ele>
        <time>2013-06-13T12:34:41Z</time>
      </trkpt>
      <trkpt lat="42.22771" lon="9.0277">
        <ele>1408</ele>
        <time>2013-06-13T12:34:51Z</time>
      </trkpt>
      <trkpt lat="42.22775" lon="9.0278">
        <ele>1406</ele>
        <time>2013-06-13T12:35:00Z</time>
      </trkpt>
      <trkpt lat="42.22773" lon="9.02792">
        <ele>1404</ele>
        <time>2013-06-13T12:35:09Z</time>
      </trkpt>
      <trkpt lat="42.22775" lon="9.02805">
        <ele>1403</ele>
        <time>2013-06-13T12:35:18Z</time>
      </trkpt>
      <trkpt lat="42.22784" lon="9.02818">
        <ele>1400</ele>
        <time>2013-06-13T12:35:29Z</time>
      </trkpt>
      <trkpt lat="42.22792" lon="9.02825">
        <ele>1397</ele>
        <time>2013-06-13T12:35:38Z</time>
      </trkpt>
      <trkpt lat="42.228" lon="9.02835">
        <ele>1396</ele>
        <time>2013-06-13T12:35:48Z</time>
      </trkpt>
      <trkpt lat="42.22805" lon="9.02848">
        <ele>1396</ele>
        <time>2013-06-13T12:35:58Z</time>
      </trkpt>
      <trkpt lat="42.22811" lon="9.02861">
        <ele>1393</ele>
        <time>2013-06-13T12:36:08Z</time>
      </trkpt>
      <trkpt lat="42.22816" lon="9.02872">
        <ele>1390</ele>
        <time>2013-06-13T12:36:18Z</time>
      </trkpt>
      <trkpt lat="42.22821" lon="9.02879">
        <ele>1387</ele>
        <time>2013-06-13T12:36:27Z</time>
      </trkpt>
      <trkpt lat="42.22829" lon="9.0289">
        <ele>1387</ele>
        <time>2013-06-13T12:36:36Z</time>
      </trkpt>
      <trkpt lat="42.22838" lon="9.02903">
        <ele>1387</ele>
        <time>2013-06-13T12:36:46Z</time>
      </trkpt>
      <trkpt lat="42.22844" lon="9.02915">
        <ele>1387</ele>
        <time>2013-06-13T12:36:57Z</time>
      </trkpt>
      <trkpt lat="42.22855" lon="9.02921">
        <ele>1387</ele>
        <time>2013-06-13T12:37:07Z</time>
      </trkpt>
      <trkpt lat="42.22858" lon="9.02936">
        <ele>1388</ele>
        <time>2013-06-13T12:37:17Z</time>
      </trkpt>
      <trkpt lat="42.22859" lon="9.02946">
        <ele>1388</ele>
        <time>2013-06-13T12:37:26Z</time>
      </trkpt>
      <trkpt lat="42.22866" lon="9.02958">
        <ele>1388</ele>
        <time>2013-06-13T12:37:37Z</time>
      </trkpt>
      <trkpt lat="42.2287" lon="9.0297">
        <ele>1387</ele>
        <time>2013-06-13T12:37:46Z</time>
      </trkpt>
      <trkpt lat="42.22873" lon="9.02979">
        <ele>1386</ele>
        <time>2013-06-13T12:37:56Z</time>
      </trkpt>
      <trkpt lat="42.22875" lon="9.02988">
        <ele>1384</ele>
        <time>2013-06-13T12:38:06Z</time>
      </trkpt>
      <trkpt lat="42.22879" lon="9.02996">
        <ele>1383</ele>
        <time>2013-06-13T12:38:18Z</time>
      </trkpt>
      <trkpt lat="42.22883" lon="9.03008">
        <ele>1382</ele>
        <time>2013-06-13T12:38:29Z</time>
      </trkpt>
      <trkpt lat="42.22884" lon="9.03018">
        <ele>1380</ele>
        <time>2013-06-13T12:38:38Z</time>
      </trkpt>
      <trkpt lat="42.22887" lon="9.03028">
        <ele>1378</ele>
        <time>2013-06-13T12:38:49Z</time>
      </trkpt>
      <trkpt lat="42.22884" lon="9.03039">
        <ele>1377</ele>
        <time>2013-06-13T12:38:59Z</time>
      </trkpt>
      <trkpt lat="42.22887" lon="9.0305">
        <ele>1377</ele>
        <time>2013-06-13T12:39:08Z</time>
      </trkpt>
      <trkpt lat="42.2289" lon="9.03055">
        <ele>1377</ele>
        <time>2013-06-13T12:39:20Z</time>
      </trkpt>
      <trkpt lat="42.22894" lon="9.03054">
        <ele>1375</ele>
        <time>2013-06-13T12:39:38Z</time>
      </trkpt>
      <trkpt lat="42.22896" lon="9.03057">
        <ele>1375</ele>
        <time>2013-06-13T12:39:48Z</time>
      </trkpt>
      <trkpt lat="42.22903" lon="9.03067">
        <ele>1374</ele>
        <time>2013-06-13T12:39:59Z</time>
      </trkpt>
      <trkpt lat="42.22912" lon="9.03077">
        <ele>1374</ele>
        <time>2013-06-13T12:40:09Z</time>
      </trkpt>
      <trkpt lat="42.22919" lon="9.03088">
        <ele>1374</ele>
        <time>2013-06-13T12:40:19Z</time>
      </trkpt>
      <trkpt lat="42.22922" lon="9.03097">
        <ele>1374</ele>
        <time>2013-06-13T12:40:29Z</time>
      </trkpt>
      <trkpt lat="42.22929" lon="9.03104">
        <ele>1374</ele>
        <time>2013-06-13T12:40:39Z</time>
      </trkpt>
      <trkpt lat="42.22935" lon="9.0311">
        <ele>1373</ele>
        <time>2013-06-13T12:40:49Z</time>
      </trkpt>
      <trkpt lat="42.22943" lon="9.03115">
        <ele>1373</ele>
        <time>2013-06-13T12:40:59Z</time>
      </trkpt>
      <trkpt lat="42.2295" lon="9.03127">
        <ele>1373</ele>
        <time>2013-06-13T12:41:09Z</time>
      </trkpt>
      <trkpt lat="42.22951" lon="9.0313">
        <ele>1373</ele>
        <time>2013-06-13T12:41:14Z</time>
      </trkpt>
    </trkseg>
  </trk>
</gpx>